Observation data for Fort McKavett on 01/17/2021      Previous  Date  Next       Current Mesonet Observations  Soil Data  Daily Summary Page  Observations in Plain Language
KMC1 170600Z 10003KT 07/M05 A3008 RMK A01 T00671053  RH  042%=      5-min Rain = 0
KMC1 170601Z 10004KT 07/M05 A3008 RMK A01 T00671054  RH  042%=      5-min Rain = 0
KMC1 170602Z 11004KT 07/M05 A3008 RMK A01 T00671054  RH  042%=      5-min Rain = 0
KMC1 170603Z 11004KT 07/M05 A3008 RMK A01 T00671054  RH  042%=      5-min Rain = 0
KMC1 170604Z 11004KT 07/M06 A3008 RMK A01 T00671055  RH  042%=      5-min Rain = 0
KMC1 170605Z 11004KT 07/M06 A3007 RMK A01 T00671055  RH  041%=      5-min Rain = 0
KMC1 170606Z 11004KT 07/M06 A3007 RMK A01 T00671055  RH  041%=      5-min Rain = 0
KMC1 170607Z 11004KT 07/M06 A3008 RMK A01 T00671056  RH  041%=      5-min Rain = 0
KMC1 170608Z 11004KT 07/M06 A3008 RMK A01 T00671056  RH  041%=      5-min Rain = 0
KMC1 170609Z 10004KT 07/M06 A3008 RMK A01 T00671056  RH  041%=      5-min Rain = 0
KMC1 170610Z 10004KT 07/M06 A3008 RMK A01 T00681056  RH  041%=      5-min Rain = 0
KMC1 170611Z 09004KT 07/M06 A3008 RMK A01 T00681056  RH  041%=      5-min Rain = 0
KMC1 170612Z 09004KT 07/M06 A3008 RMK A01 T00681056  RH  041%=      5-min Rain = 0
KMC1 170613Z 09004KT 07/M06 A3008 RMK A01 T00671056  RH  041%=      5-min Rain = 0
KMC1 170614Z 09004KT 07/M06 A3008 RMK A01 T00671055  RH  041%=      5-min Rain = 0
KMC1 170615Z 09004KT 07/M06 A3008 RMK A01 T00661055  RH  042%=      5-min Rain = 0
KMC1 170616Z 10004KT 07/M06 A3008 RMK A01 T00651055  RH  042%=      5-min Rain = 0
KMC1 170617Z 09004KT 07/M06 A3008 RMK A01 T00651055  RH  042%=      5-min Rain = 0
KMC1 170618Z 09004KT 07/M06 A3008 RMK A01 T00651055  RH  042%=      5-min Rain = 0
KMC1 170619Z 09004KT 06/M06 A3008 RMK A01 T00641055  RH  042%=      5-min Rain = 0
KMC1 170620Z 10004KT 06/M06 A3008 RMK A01 T00641055  RH  042%=      5-min Rain = 0
KMC1 170621Z 09004KT 07/M05 A3008 RMK A01 T00651054  RH  042%=      5-min Rain = 0
KMC1 170622Z 09004KT 06/M05 A3008 RMK A01 T00641054  RH  043%=      5-min Rain = 0
KMC1 170623Z 08005KT 06/M05 A3008 RMK A01 T00641054  RH  043%=      5-min Rain = 0
KMC1 170624Z 08005KT 06/M05 A3008 RMK A01 T00631054  RH  043%=      5-min Rain = 0
KMC1 170625Z 08005KT 06/M06 A3008 RMK A01 T00631055  RH  043%=      5-min Rain = 0
KMC1 170626Z 08005KT 06/M06 A3008 RMK A01 T00631055  RH  043%=      5-min Rain = 0
KMC1 170627Z 08004KT 06/M05 A3008 RMK A01 T00631054  RH  043%=      5-min Rain = 0
KMC1 170628Z 07004KT 06/M05 A3008 RMK A01 T00631054  RH  043%=      5-min Rain = 0
KMC1 170629Z 07004KT 06/M05 A3008 RMK A01 T00621054  RH  043%=      5-min Rain = 0
KMC1 170630Z 08005KT 06/M05 A3008 RMK A01 T00611054  RH  043%=      5-min Rain = 0
KMC1 170631Z 08005KT 06/M06 A3008 RMK A01 T00611055  RH  043%=      5-min Rain = 0
KMC1 170632Z 08004KT 06/M06 A3008 RMK A01 T00611055  RH  043%=      5-min Rain = 0
KMC1 170633Z 09004KT 06/M05 A3008 RMK A01 T00601053  RH  044%=      5-min Rain = 0
KMC1 170634Z 08004KT 06/M05 A3008 RMK A01 T00581054  RH  044%=      5-min Rain = 0
KMC1 170635Z 08004KT 06/M05 A3008 RMK A01 T00571054  RH  045%=      5-min Rain = 0
KMC1 170636Z 07004KT 06/M05 A3008 RMK A01 T00571054  RH  045%=      5-min Rain = 0
KMC1 170637Z 07004KT 06/M05 A3008 RMK A01 T00561054  RH  045%=      5-min Rain = 0
KMC1 170638Z 07004KT 06/M06 A3008 RMK A01 T00561055  RH  045%=      5-min Rain = 0
KMC1 170639Z 07004KT 06/M06 A3008 RMK A01 T00551055  RH  045%=      5-min Rain = 0
KMC1 170640Z 07004KT 06/M06 A3008 RMK A01 T00551055  RH  045%=      5-min Rain = 0
KMC1 170641Z 08004KT 06/M06 A3008 RMK A01 T00551056  RH  045%=      5-min Rain = 0
KMC1 170642Z 07004KT 06/M06 A3008 RMK A01 T00551056  RH  045%=      5-min Rain = 0
KMC1 170643Z 07004KT 06/M06 A3008 RMK A01 T00551056  RH  045%=      5-min Rain = 0
KMC1 170644Z 07004KT 06/M06 A3008 RMK A01 T00551055  RH  045%=      5-min Rain = 0
KMC1 170645Z 07003KT 05/M06 A3008 RMK A01 T00541055  RH  045%=      5-min Rain = 0
KMC1 170646Z 07003KT 05/M06 A3008 RMK A01 T00541055  RH  045%=      5-min Rain = 0
KMC1 170647Z 07003KT 05/M06 A3008 RMK A01 T00531055  RH  046%=      5-min Rain = 0
KMC1 170648Z 07003KT 05/M06 A3008 RMK A01 T00531055  RH  046%=      5-min Rain = 0
KMC1 170649Z 08003KT 05/M06 A3008 RMK A01 T00521055  RH  046%=      5-min Rain = 0
KMC1 170650Z 07003KT 05/M06 A3008 RMK A01 T00521055  RH  046%=      5-min Rain = 0
KMC1 170651Z 07002KT 05/M06 A3008 RMK A01 T00521055  RH  046%=      5-min Rain = 0
KMC1 170652Z 07002KT 05/M06 A3008 RMK A01 T00511055  RH  046%=      5-min Rain = 0
KMC1 170653Z 08002KT 05/M06 A3008 RMK A01 T00501055  RH  046%=      5-min Rain = 0
KMC1 170654Z 07002KT 05/M06 A3008 RMK A01 T00501055  RH  047%=      5-min Rain = 0
KMC1 170655Z 07002KT 05/M06 A3008 RMK A01 T00481055  RH  047%=      5-min Rain = 0
KMC1 170656Z 07001KT 05/M06 A3008 RMK A01 T00471055  RH  048%=      5-min Rain = 0
KMC1 170657Z 05001KT 05/M06 A3008 RMK A01 T00451055  RH  048%=      5-min Rain = 0
KMC1 170658Z 06001KT 04/M06 A3008 RMK A01 T00441055  RH  049%=      5-min Rain = 0
KMC1 170659Z 06001KT 04/M05 A3008 RMK A01 T00431054  RH  049%=      5-min Rain = 0
KMC1 170700Z 07002KT 04/M05 A3008 RMK A01 T00421053  RH  050%=      5-min Rain = 0
KMC1 170701Z 07002KT 04/M05 A3008 RMK A01 T00411051  RH  051%=      5-min Rain = 0
KMC1 170702Z 08002KT 04/M05 A3008 RMK A01 T00401053  RH  051%=      5-min Rain = 0
KMC1 170703Z 07002KT 04/M05 A3008 RMK A01 T00391054  RH  050%=      5-min Rain = 0
KMC1 170704Z 07002KT 04/M06 A3008 RMK A01 T00391055  RH  050%=      5-min Rain = 0
KMC1 170705Z 06001KT 04/M06 A3008 RMK A01 T00391056  RH  050%=      5-min Rain = 0
KMC1 170706Z 05002KT 04/M05 A3008 RMK A01 T00391054  RH  051%=      5-min Rain = 0
KMC1 170707Z 05002KT 04/M05 A3008 RMK A01 T00391054  RH  051%=      5-min Rain = 0
KMC1 170708Z 05002KT 04/M05 A3008 RMK A01 T00391054  RH  051%=      5-min Rain = 0
KMC1 170709Z 05002KT 04/M05 A3008 RMK A01 T00391053  RH  051%=      5-min Rain = 0
KMC1 170710Z 05002KT 04/M05 A3008 RMK A01 T00401053  RH  051%=      5-min Rain = 0
KMC1 170711Z 05002KT 04/M05 A3008 RMK A01 T00401051  RH  052%=      5-min Rain = 0
KMC1 170712Z 04002KT 04/M05 A3008 RMK A01 T00391048  RH  053%=      5-min Rain = 0
KMC1 170713Z 04002KT 04/M05 A3008 RMK A01 T00381048  RH  053%=      5-min Rain = 0
KMC1 170714Z 03002KT 04/M05 A3008 RMK A01 T00381048  RH  053%=      5-min Rain = 0
KMC1 170715Z 03002KT 04/M05 A3008 RMK A01 T00371048  RH  054%=      5-min Rain = 0
KMC1 170716Z 03002KT 04/M05 A3008 RMK A01 T00371047  RH  054%=      5-min Rain = 0
KMC1 170717Z 03002KT 04/M05 A3008 RMK A01 T00371046  RH  055%=      5-min Rain = 0
KMC1 170718Z 03002KT 04/M05 A3008 RMK A01 T00361047  RH  055%=      5-min Rain = 0
KMC1 170719Z 03002KT 04/M05 A3008 RMK A01 T00361047  RH  055%=      5-min Rain = 0
KMC1 170720Z 03002KT 04/M05 A3008 RMK A01 T00361046  RH  055%=      5-min Rain = 0
KMC1 170721Z 03002KT 04/M05 A3008 RMK A01 T00351047  RH  055%=      5-min Rain = 0
KMC1 170722Z 03002KT 03/M05 A3008 RMK A01 T00341048  RH  055%=      5-min Rain = 0
KMC1 170723Z 03002KT 03/M05 A3008 RMK A01 T00341049  RH  055%=      5-min Rain = 0
KMC1 170724Z 03002KT 03/M05 A3008 RMK A01 T00331049  RH  055%=      5-min Rain = 0
KMC1 170725Z 03002KT 03/M05 A3008 RMK A01 T00331049  RH  055%=      5-min Rain = 0
KMC1 170726Z 03002KT 03/M05 A3008 RMK A01 T00321049  RH  055%=      5-min Rain = 0
KMC1 170727Z 03002KT 03/M05 A3008 RMK A01 T00321050  RH  055%=      5-min Rain = 0
KMC1 170728Z 03002KT 03/M05 A3008 RMK A01 T00311050  RH  055%=      5-min Rain = 0
KMC1 170729Z 03001KT 03/M05 A3008 RMK A01 T00301051  RH  055%=      5-min Rain = 0
KMC1 170730Z 03001KT 03/M05 A3008 RMK A01 T00301051  RH  056%=      5-min Rain = 0
KMC1 170731Z 03001KT 03/M05 A3008 RMK A01 T00291050  RH  056%=      5-min Rain = 0
KMC1 170732Z 03001KT 03/M05 A3008 RMK A01 T00291050  RH  056%=      5-min Rain = 0
KMC1 170733Z 03001KT 03/M05 A3008 RMK A01 T00291051  RH  056%=      5-min Rain = 0
KMC1 170734Z 03001KT 03/M05 A3008 RMK A01 T00291051  RH  056%=      5-min Rain = 0
KMC1 170735Z 01002KT 03/M05 A3008 RMK A01 T00281051  RH  056%=      5-min Rain = 0
KMC1 170736Z 01002KT 03/M05 A3009 RMK A01 T00291050  RH  056%=      5-min Rain = 0
KMC1 170737Z 01002KT 03/M05 A3009 RMK A01 T00301049  RH  056%=      5-min Rain = 0
KMC1 170738Z 01003KT 03/M05 A3009 RMK A01 T00321049  RH  055%=      5-min Rain = 0
KMC1 170739Z 01003KT 03/M05 A3009 RMK A01 T00331050  RH  054%=      5-min Rain = 0
KMC1 170740Z 01003KT 03/M05 A3009 RMK A01 T00341051  RH  054%=      5-min Rain = 0
KMC1 170741Z 00003KT 04/M05 A3009 RMK A01 T00351053  RH  053%=      5-min Rain = 0
KMC1 170742Z 00003KT 04/M05 A3009 RMK A01 T00361053  RH  052%=      5-min Rain = 0
KMC1 170743Z 00002KT 04/M05 A3009 RMK A01 T00371053  RH  052%=      5-min Rain = 0
KMC1 170744Z 00001KT 04/M05 A3009 RMK A01 T00361054  RH  052%=      5-min Rain = 0
KMC1 170745Z 00001KT 04/M05 A3009 RMK A01 T00361054  RH  052%=      5-min Rain = 0
KMC1 170746Z 00000KT 04/M05 A3009 RMK A01 T00361054  RH  052%=      5-min Rain = 0
KMC1 170747Z 00000KT 03/M05 A3009 RMK A01 T00341054  RH  052%=      5-min Rain = 0
KMC1 170748Z 01000KT 03/M06 A3009 RMK A01 T00331055  RH  052%=      5-min Rain = 0
KMC1 170749Z 01001KT 03/M06 A3009 RMK A01 T00321055  RH  053%=      5-min Rain = 0
KMC1 170750Z 01001KT 03/M06 A3009 RMK A01 T00321055  RH  053%=      5-min Rain = 0
KMC1 170751Z 01001KT 03/M06 A3009 RMK A01 T00311055  RH  053%=      5-min Rain = 0
KMC1 170752Z 01002KT 03/M06 A3009 RMK A01 T00301057  RH  053%=      5-min Rain = 0
KMC1 170753Z 00002KT 03/M06 A3009 RMK A01 T00301057  RH  052%=      5-min Rain = 0
KMC1 170754Z 00002KT 03/M06 A3009 RMK A01 T00301057  RH  053%=      5-min Rain = 0
KMC1 170755Z 36002KT 03/M06 A3009 RMK A01 T00301056  RH  053%=      5-min Rain = 0
KMC1 170756Z 35002KT 03/M06 A3009 RMK A01 T00311055  RH  053%=      5-min Rain = 0
KMC1 170757Z 00002KT 03/M06 A3009 RMK A01 T00311056  RH  053%=      5-min Rain = 0
KMC1 170758Z 00002KT 03/M06 A3009 RMK A01 T00301056  RH  053%=      5-min Rain = 0
KMC1 170759Z 00002KT 03/M06 A3009 RMK A01 T00291056  RH  053%=      5-min Rain = 0
KMC1 170800Z 36001KT 03/M06 A3009 RMK A01 T00281057  RH  054%=      5-min Rain = 0
KMC1 170801Z 35001KT 03/M06 A3009 RMK A01 T00271057  RH  054%=      5-min Rain = 0
KMC1 170802Z 35001KT 03/M06 A3009 RMK A01 T00261057  RH  054%=      5-min Rain = 0
KMC1 170803Z 00000KT 03/M06 A3009 RMK A01 T00251057  RH  054%=      5-min Rain = 0
KMC1 170804Z 00000KT 02/M06 A3009 RMK A01 T00241057  RH  055%=      5-min Rain = 0
KMC1 170805Z 00000KT 02/M06 A3009 RMK A01 T00231057  RH  056%=      5-min Rain = 0
KMC1 170806Z 00000KT 02/M06 A3009 RMK A01 T00221057  RH  056%=      5-min Rain = 0
KMC1 170807Z 00000KT 02/M06 A3009 RMK A01 T00211057  RH  056%=      5-min Rain = 0
KMC1 170808Z 00000KT 02/M06 A3009 RMK A01 T00211057  RH  056%=      5-min Rain = 0
KMC1 170809Z 00000KT 02/M06 A3009 RMK A01 T00211058  RH  056%=      5-min Rain = 0
KMC1 170810Z 00000KT 02/M06 A3009 RMK A01 T00211058  RH  056%=      5-min Rain = 0
KMC1 170811Z 00000KT 02/M06 A3009 RMK A01 T00221058  RH  056%=      5-min Rain = 0
KMC1 170812Z 00000KT 02/M06 A3009 RMK A01 T00221058  RH  056%=      5-min Rain = 0
KMC1 170813Z 00000KT 02/M06 A3009 RMK A01 T00201059  RH  056%=      5-min Rain = 0
KMC1 170814Z 35001KT 02/M06 A3009 RMK A01 T00201058  RH  056%=      5-min Rain = 0
KMC1 170815Z 35001KT 02/M06 A3009 RMK A01 T00191057  RH  057%=      5-min Rain = 0
KMC1 170816Z 22001KT 02/M06 A3009 RMK A01 T00181055  RH  058%=      5-min Rain = 0
KMC1 170817Z 20001KT 02/M06 A3009 RMK A01 T00181055  RH  059%=      5-min Rain = 0
KMC1 170818Z 20001KT 02/M06 A3009 RMK A01 T00171056  RH  058%=      5-min Rain = 0
KMC1 170819Z 20000KT 02/M05 A3009 RMK A01 T00161054  RH  059%=      5-min Rain = 0
KMC1 170820Z 20000KT 02/M05 A3009 RMK A01 T00151054  RH  060%=      5-min Rain = 0
KMC1 170821Z 00000KT 02/M05 A301 RMK A01 T00151054  RH  060%=      5-min Rain = 0
KMC1 170822Z 00000KT 02/M05 A301 RMK A01 T00151052  RH  061%=      5-min Rain = 0
KMC1 170823Z 20000KT 01/M05 A301 RMK A01 T00141052  RH  062%=      5-min Rain = 0
KMC1 170824Z 20001KT 01/M05 A301 RMK A01 T00141051  RH  062%=      5-min Rain = 0
KMC1 170825Z 20001KT 01/M05 A301 RMK A01 T00141051  RH  062%=      5-min Rain = 0
KMC1 170826Z 20001KT 01/M05 A301 RMK A01 T00131051  RH  062%=      5-min Rain = 0
KMC1 170827Z 20001KT 01/M05 A301 RMK A01 T00121052  RH  062%=      5-min Rain = 0
KMC1 170828Z 20000KT 01/M05 A301 RMK A01 T00121052  RH  063%=      5-min Rain = 0
KMC1 170829Z 00000KT 01/M05 A301 RMK A01 T00111051  RH  063%=      5-min Rain = 0
KMC1 170830Z 00000KT 01/M05 A301 RMK A01 T00111049  RH  064%=      5-min Rain = 0
KMC1 170831Z 00000KT 01/M05 A301 RMK A01 T00121046  RH  066%=      5-min Rain = 0
KMC1 170832Z 30001KT 01/M04 A301 RMK A01 T00121044  RH  066%=      5-min Rain = 0
KMC1 170833Z 30001KT 01/M05 A301 RMK A01 T00121045  RH  066%=      5-min Rain = 0
KMC1 170834Z 27002KT 01/M05 A3011 RMK A01 T00111046  RH  066%=      5-min Rain = 0
KMC1 170835Z 25002KT 01/M05 A3011 RMK A01 T00071048  RH  066%=      5-min Rain = 0
KMC1 170836Z 24002KT 00/M05 A3011 RMK A01 T00041050  RH  067%=      5-min Rain = 0
KMC1 170837Z 23003KT 00/05 A3011 RMK A01 T00000-53  RH  067%=      5-min Rain = 0
KMC1 170838Z 22002KT M00/M05 A3011 RMK A01 T10021054  RH  068%=      5-min Rain = 0
KMC1 170839Z 21003KT M00/M05 A3011 RMK A01 T10021052  RH  069%=      5-min Rain = 0
KMC1 170840Z 20003KT M00/M05 A301 RMK A01 T10031052  RH  069%=      5-min Rain = 0
KMC1 170841Z 20003KT M00/M05 A301 RMK A01 T10031052  RH  070%=      5-min Rain = 0
KMC1 170842Z 19003KT M00/M05 A301 RMK A01 T10031051  RH  070%=      5-min Rain = 0
KMC1 170843Z 19004KT M00/M05 A301 RMK A01 T10031051  RH  070%=      5-min Rain = 0
KMC1 170844Z 19003KT M00/M05 A301 RMK A01 T10041051  RH  070%=      5-min Rain = 0
KMC1 170845Z 20003KT M00/M05 A301 RMK A01 T10041051  RH  070%=      5-min Rain = 0
KMC1 170846Z 20004KT M00/M05 A301 RMK A01 T10041051  RH  070%=      5-min Rain = 0
KMC1 170847Z 20003KT M01/M05 A301 RMK A01 T10051052  RH  070%=      5-min Rain = 0
KMC1 170848Z 20003KT M01/M05 A301 RMK A01 T10051052  RH  071%=      5-min Rain = 0
KMC1 170849Z 19004KT M01/M05 A301 RMK A01 T10051052  RH  071%=      5-min Rain = 0
KMC1 170850Z 19004KT M01/M05 A301 RMK A01 T10051052  RH  071%=      5-min Rain = 0
KMC1 170851Z 19004KT M01/M05 A301 RMK A01 T10051052  RH  070%=      5-min Rain = 0
KMC1 170852Z 19003KT M00/M05 A301 RMK A01 T10041052  RH  070%=      5-min Rain = 0
KMC1 170853Z 20003KT M00/M05 A301 RMK A01 T10031052  RH  070%=      5-min Rain = 0
KMC1 170854Z 20003KT M00/M05 A3011 RMK A01 T10031052  RH  070%=      5-min Rain = 0
KMC1 170855Z 21003KT M00/M05 A3011 RMK A01 T10021052  RH  069%=      5-min Rain = 0
KMC1 170856Z 21004KT M00/M05 A3011 RMK A01 T10011052  RH  069%=      5-min Rain = 0
KMC1 170857Z 21004KT M00/M05 A3011 RMK A01 T10011052  RH  069%=      5-min Rain = 0
KMC1 170858Z 22004KT M00/M05 A3011 RMK A01 T10011052  RH  068%=      5-min Rain = 0
KMC1 170859Z 22003KT M00/M05 A3011 RMK A01 T10011053  RH  068%=      5-min Rain = 0
KMC1 170900Z 21004KT M00/M05 A3011 RMK A01 T10011053  RH  068%=      5-min Rain = 0
KMC1 170901Z 21004KT M00/M05 A3011 RMK A01 T10021053  RH  069%=      5-min Rain = 0
KMC1 170902Z 20005KT M00/M05 A3011 RMK A01 T10031053  RH  069%=      5-min Rain = 0
KMC1 170903Z 20005KT M00/M05 A3011 RMK A01 T10031052  RH  069%=      5-min Rain = 0
KMC1 170904Z 19004KT M00/M05 A3011 RMK A01 T10041053  RH  069%=      5-min Rain = 0
KMC1 170905Z 19004KT M00/M05 A3011 RMK A01 T10041054  RH  069%=      5-min Rain = 0
KMC1 170906Z 19003KT M00/M05 A3011 RMK A01 T10041054  RH  069%=      5-min Rain = 0
KMC1 170907Z 19003KT M00/M05 A3011 RMK A01 T10041054  RH  069%=      5-min Rain = 0
KMC1 170908Z 19003KT M00/M05 A3011 RMK A01 T10031054  RH  069%=      5-min Rain = 0
KMC1 170909Z 20002KT M00/M05 A3011 RMK A01 T10031054  RH  069%=      5-min Rain = 0
KMC1 170910Z 20003KT M00/M05 A3011 RMK A01 T10031054  RH  069%=      5-min Rain = 0
KMC1 170911Z 21004KT M00/M05 A3011 RMK A01 T10031054  RH  069%=      5-min Rain = 0
KMC1 170912Z 21004KT M00/M05 A3011 RMK A01 T10031054  RH  068%=      5-min Rain = 0
KMC1 170913Z 19003KT M00/M06 A3011 RMK A01 T10041055  RH  068%=      5-min Rain = 0
KMC1 170914Z 19003KT M00/M06 A3011 RMK A01 T10041055  RH  069%=      5-min Rain = 0
KMC1 170915Z 19003KT M01/M06 A3011 RMK A01 T10051055  RH  069%=      5-min Rain = 0
KMC1 170916Z 20003KT M01/M06 A3011 RMK A01 T10051055  RH  069%=      5-min Rain = 0
KMC1 170917Z 20003KT M01/M06 A3011 RMK A01 T10061055  RH  070%=      5-min Rain = 0
KMC1 170918Z 20004KT M01/M06 A3011 RMK A01 T10071055  RH  070%=      5-min Rain = 0
KMC1 170919Z 20005KT M01/M06 A3011 RMK A01 T10081055  RH  070%=      5-min Rain = 0
KMC1 170920Z 19004KT M01/M05 A3011 RMK A01 T10081054  RH  071%=      5-min Rain = 0
KMC1 170921Z 19003KT M01/M05 A3011 RMK A01 T10081054  RH  071%=      5-min Rain = 0
KMC1 170922Z 20003KT M01/M05 A3011 RMK A01 T10081054  RH  071%=      5-min Rain = 0
KMC1 170923Z 21004KT M01/M05 A3011 RMK A01 T10071053  RH  071%=      5-min Rain = 0
KMC1 170924Z 21003KT M01/M05 A3011 RMK A01 T10071053  RH  071%=      5-min Rain = 0
KMC1 170925Z 21004KT M01/M05 A3011 RMK A01 T10071054  RH  071%=      5-min Rain = 0
KMC1 170926Z 21004KT M01/M05 A3011 RMK A01 T10081054  RH  071%=      5-min Rain = 0
KMC1 170927Z 21003KT M01/M06 A3011 RMK A01 T10091055  RH  071%=      5-min Rain = 0
KMC1 170928Z 21004KT M01/M06 A3011 RMK A01 T10111055  RH  072%=      5-min Rain = 0
KMC1 170929Z 21004KT M01/M06 A3011 RMK A01 T10121055  RH  073%=      5-min Rain = 0
KMC1 170930Z 21004KT M01/M05 A3011 RMK A01 T10121054  RH  073%=      5-min Rain = 0
KMC1 170931Z 22004KT M01/M06 A3011 RMK A01 T10131055  RH  073%=      5-min Rain = 0
KMC1 170932Z 22004KT M01/M05 A3011 RMK A01 T10131054  RH  073%=      5-min Rain = 0
KMC1 170933Z 23003KT M01/M06 A3012 RMK A01 T10141055  RH  073%=      5-min Rain = 0
KMC1 170934Z 23003KT M02/M06 A3012 RMK A01 T10151055  RH  074%=      5-min Rain = 0
KMC1 170935Z 23003KT M02/M06 A3011 RMK A01 T10161056  RH  074%=      5-min Rain = 0
KMC1 170936Z 22003KT M02/M06 A3011 RMK A01 T10171057  RH  074%=      5-min Rain = 0
KMC1 170937Z 22003KT M02/M06 A3011 RMK A01 T10181057  RH  075%=      5-min Rain = 0
KMC1 170938Z 24003KT M02/M06 A3011 RMK A01 T10181057  RH  075%=      5-min Rain = 0
KMC1 170939Z 23003KT M02/M06 A3011 RMK A01 T10191057  RH  075%=      5-min Rain = 0
KMC1 170940Z 23003KT M02/M06 A3011 RMK A01 T10191057  RH  075%=      5-min Rain = 0
KMC1 170941Z 25003KT M02/M06 A3011 RMK A01 T10201057  RH  076%=      5-min Rain = 0
KMC1 170942Z 26003KT M02/M06 A3011 RMK A01 T10201057  RH  076%=      5-min Rain = 0
KMC1 170943Z 26003KT M02/M06 A3011 RMK A01 T10211057  RH  076%=      5-min Rain = 0
KMC1 170944Z 25002KT M02/M06 A3011 RMK A01 T10211057  RH  077%=      5-min Rain = 0
KMC1 170945Z 25003KT M02/M06 A3011 RMK A01 T10211057  RH  077%=      5-min Rain = 0
KMC1 170946Z 25004KT M02/M06 A3011 RMK A01 T10221057  RH  077%=      5-min Rain = 0
KMC1 170947Z 25003KT M02/M06 A3011 RMK A01 T10221057  RH  077%=      5-min Rain = 0
KMC1 170948Z 24003KT M02/M06 A3011 RMK A01 T10221057  RH  077%=      5-min Rain = 0
KMC1 170949Z 23003KT M02/M06 A3011 RMK A01 T10221057  RH  077%=      5-min Rain = 0
KMC1 170950Z 23003KT M02/M06 A3011 RMK A01 T10221057  RH  077%=      5-min Rain = 0
KMC1 170951Z 23004KT M02/M06 A3011 RMK A01 T10221057  RH  077%=      5-min Rain = 0
KMC1 170952Z 23004KT M02/M06 A3011 RMK A01 T10231058  RH  077%=      5-min Rain = 0
KMC1 170953Z 24004KT M02/M06 A3011 RMK A01 T10231058  RH  077%=      5-min Rain = 0
KMC1 170954Z 24003KT M02/M06 A3011 RMK A01 T10231058  RH  077%=      5-min Rain = 0
KMC1 170955Z 24004KT M02/M06 A3011 RMK A01 T10231058  RH  077%=      5-min Rain = 0
KMC1 170956Z 23004KT M02/M06 A3011 RMK A01 T10221057  RH  077%=      5-min Rain = 0
KMC1 170957Z 23004KT M02/M06 A3011 RMK A01 T10221057  RH  077%=      5-min Rain = 0
KMC1 170958Z 23004KT M02/M06 A3011 RMK A01 T10221057  RH  077%=      5-min Rain = 0
KMC1 170959Z 24003KT M02/M06 A3011 RMK A01 T10211057  RH  077%=      5-min Rain = 0
KMC1 171000Z 24003KT M02/M06 A3011 RMK A01 T10211057  RH  077%=      5-min Rain = 0
KMC1 171001Z 23004KT M02/M06 A3011 RMK A01 T10211057  RH  076%=      5-min Rain = 0
KMC1 171002Z 24004KT M02/M06 A3011 RMK A01 T10221057  RH  077%=      5-min Rain = 0
KMC1 171003Z 25004KT M02/M06 A3011 RMK A01 T10221058  RH  076%=      5-min Rain = 0
KMC1 171004Z 23004KT M02/M06 A3011 RMK A01 T10221057  RH  077%=      5-min Rain = 0
KMC1 171005Z 22004KT M02/M06 A3011 RMK A01 T10221057  RH  077%=      5-min Rain = 0
KMC1 171006Z 22003KT M02/M06 A3011 RMK A01 T10221057  RH  077%=      5-min Rain = 0
KMC1 171007Z 23003KT M02/M06 A3011 RMK A01 T10231057  RH  077%=      5-min Rain = 0
KMC1 171008Z 23003KT M02/M06 A3011 RMK A01 T10231058  RH  077%=      5-min Rain = 0
KMC1 171009Z 21005KT M02/M06 A3011 RMK A01 T10241059  RH  077%=      5-min Rain = 0
KMC1 171010Z 21005KT M02/M06 A3011 RMK A01 T10241059  RH  077%=      5-min Rain = 0
KMC1 171011Z 21005KT M03/M06 A3011 RMK A01 T10251059  RH  077%=      5-min Rain = 0
KMC1 171012Z 22005KT M03/M06 A3011 RMK A01 T10251059  RH  077%=      5-min Rain = 0
KMC1 171013Z 22004KT M03/M06 A3011 RMK A01 T10251059  RH  077%=      5-min Rain = 0
KMC1 171014Z 23003KT M03/M06 A3011 RMK A01 T10251059  RH  077%=      5-min Rain = 0
KMC1 171015Z 24003KT M03/M06 A3011 RMK A01 T10261058  RH  078%=      5-min Rain = 0
KMC1 171016Z 24003KT M03/M06 A3011 RMK A01 T10261058  RH  078%=      5-min Rain = 0
KMC1 171017Z 24004KT M03/M06 A3011 RMK A01 T10271059  RH  079%=      5-min Rain = 0
KMC1 171018Z 23004KT M03/M06 A3011 RMK A01 T10261058  RH  079%=      5-min Rain = 0
KMC1 171019Z 23005KT M03/M06 A3011 RMK A01 T10261058  RH  079%=      5-min Rain = 0
KMC1 171020Z 23005KT M03/M06 A3011 RMK A01 T10261059  RH  078%=      5-min Rain = 0
KMC1 171021Z 23005KT M03/M06 A3011 RMK A01 T10261059  RH  078%=      5-min Rain = 0
KMC1 171022Z 23005KT M03/M06 A3011 RMK A01 T10271059  RH  078%=      5-min Rain = 0
KMC1 171023Z 22004KT M03/M06 A3011 RMK A01 T10271059  RH  078%=      5-min Rain = 0
KMC1 171024Z 22004KT M03/M06 A3011 RMK A01 T10271059  RH  078%=      5-min Rain = 0
KMC1 171025Z 22004KT M03/M06 A3011 RMK A01 T10271059  RH  079%=      5-min Rain = 0
KMC1 171026Z 22005KT M03/M06 A3011 RMK A01 T10271059  RH  079%=      5-min Rain = 0
KMC1 171027Z 22005KT M03/M06 A3011 RMK A01 T10271058  RH  079%=      5-min Rain = 0
KMC1 171028Z 21005KT M03/M06 A3011 RMK A01 T10261058  RH  079%=      5-min Rain = 0
KMC1 171029Z 21005KT M03/M06 A3011 RMK A01 T10261058  RH  078%=      5-min Rain = 0
KMC1 171030Z 21005KT M03/M06 A3011 RMK A01 T10251058  RH  078%=      5-min Rain = 0
KMC1 171031Z 21005KT M02/M06 A3011 RMK A01 T10241057  RH  078%=      5-min Rain = 0
KMC1 171032Z 22004KT M02/M06 A3011 RMK A01 T10231057  RH  078%=      5-min Rain = 0
KMC1 171033Z 22004KT M02/M06 A3011 RMK A01 T10231057  RH  077%=      5-min Rain = 0
KMC1 171034Z 22004KT M02/M06 A3011 RMK A01 T10231058  RH  077%=      5-min Rain = 0
KMC1 171035Z 22004KT M02/M06 A3011 RMK A01 T10221058  RH  077%=      5-min Rain = 0
KMC1 171036Z 22004KT M02/M06 A3011 RMK A01 T10221058  RH  076%=      5-min Rain = 0
KMC1 171037Z 22004KT M02/M06 A3011 RMK A01 T10211057  RH  076%=      5-min Rain = 0
KMC1 171038Z 21004KT M02/M06 A3011 RMK A01 T10211057  RH  076%=      5-min Rain = 0
KMC1 171039Z 21004KT M02/M06 A3011 RMK A01 T10201057  RH  076%=      5-min Rain = 0
KMC1 171040Z 21004KT M02/M06 A301 RMK A01 T10201058  RH  076%=      5-min Rain = 0
KMC1 171041Z 21004KT M02/M06 A301 RMK A01 T10201058  RH  076%=      5-min Rain = 0
KMC1 171042Z 21004KT M02/M06 A301 RMK A01 T10201058  RH  076%=      5-min Rain = 0
KMC1 171043Z 21004KT M02/M06 A301 RMK A01 T10211058  RH  075%=      5-min Rain = 0
KMC1 171044Z 21004KT M02/M06 A301 RMK A01 T10211058  RH  075%=      5-min Rain = 0
KMC1 171045Z 21004KT M02/M06 A301 RMK A01 T10211058  RH  076%=      5-min Rain = 0
KMC1 171046Z 20004KT M02/M06 A301 RMK A01 T10221059  RH  076%=      5-min Rain = 0
KMC1 171047Z 20004KT M02/M06 A301 RMK A01 T10221059  RH  076%=      5-min Rain = 0
KMC1 171048Z 20004KT M02/M06 A301 RMK A01 T10221059  RH  076%=      5-min Rain = 0
KMC1 171049Z 21004KT M02/M06 A301 RMK A01 T10231059  RH  076%=      5-min Rain = 0
KMC1 171050Z 21003KT M02/M06 A301 RMK A01 T10231059  RH  076%=      5-min Rain = 0
KMC1 171051Z 21004KT M02/M06 A301 RMK A01 T10241059  RH  076%=      5-min Rain = 0
KMC1 171052Z 20004KT M02/M06 A301 RMK A01 T10241060  RH  077%=      5-min Rain = 0
KMC1 171053Z 20004KT M02/M06 A301 RMK A01 T10241059  RH  077%=      5-min Rain = 0
KMC1 171054Z 21004KT M02/M06 A301 RMK A01 T10241059  RH  077%=      5-min Rain = 0
KMC1 171055Z 21004KT M02/M06 A301 RMK A01 T10241059  RH  077%=      5-min Rain = 0
KMC1 171056Z 21004KT M03/M06 A301 RMK A01 T10251059  RH  077%=      5-min Rain = 0
KMC1 171057Z 21003KT M02/M06 A301 RMK A01 T10241058  RH  077%=      5-min Rain = 0
KMC1 171058Z 21003KT M02/M06 A301 RMK A01 T10241059  RH  077%=      5-min Rain = 0
KMC1 171059Z 21004KT M02/M06 A301 RMK A01 T10241059  RH  077%=      5-min Rain = 0
KMC1 171100Z 21004KT M02/M06 A301 RMK A01 T10241059  RH  077%=      5-min Rain = 0
KMC1 171101Z 21003KT M02/M06 A301 RMK A01 T10241058  RH  077%=      5-min Rain = 0
KMC1 171102Z 22003KT M02/M06 A301 RMK A01 T10241058  RH  078%=      5-min Rain = 0
KMC1 171103Z 22003KT M02/M06 A301 RMK A01 T10241058  RH  078%=      5-min Rain = 0
KMC1 171104Z 22003KT M03/M06 A301 RMK A01 T10251058  RH  078%=      5-min Rain = 0
KMC1 171105Z 22003KT M02/M06 A301 RMK A01 T10241058  RH  078%=      5-min Rain = 0
KMC1 171106Z 22003KT M03/M06 A301 RMK A01 T10251058  RH  078%=      5-min Rain = 0
KMC1 171107Z 22003KT M03/M06 A301 RMK A01 T10251058  RH  078%=      5-min Rain = 0
KMC1 171108Z 22003KT M03/M06 A301 RMK A01 T10261058  RH  078%=      5-min Rain = 0
KMC1 171109Z 22003KT M03/M06 A301 RMK A01 T10271059  RH  079%=      5-min Rain = 0
KMC1 171110Z 23003KT M03/M06 A301 RMK A01 T10271059  RH  079%=      5-min Rain = 0
KMC1 171111Z 22003KT M03/M06 A301 RMK A01 T10281059  RH  079%=      5-min Rain = 0
KMC1 171112Z 21004KT M03/M06 A301 RMK A01 T10281059  RH  079%=      5-min Rain = 0
KMC1 171113Z 21003KT M03/M06 A301 RMK A01 T10281058  RH  080%=      5-min Rain = 0
KMC1 171114Z 22003KT M03/M06 A301 RMK A01 T10281058  RH  080%=      5-min Rain = 0
KMC1 171115Z 24003KT M03/M06 A301 RMK A01 T10281058  RH  080%=      5-min Rain = 0
KMC1 171116Z 23003KT M03/M06 A301 RMK A01 T10281059  RH  080%=      5-min Rain = 0
KMC1 171117Z 21003KT M03/M06 A301 RMK A01 T10281059  RH  080%=      5-min Rain = 0
KMC1 171118Z 21004KT M03/M06 A301 RMK A01 T10291059  RH  080%=      5-min Rain = 0
KMC1 171119Z 23003KT M03/M06 A301 RMK A01 T10291059  RH  080%=      5-min Rain = 0
KMC1 171120Z 23003KT M03/M06 A301 RMK A01 T10301060  RH  080%=      5-min Rain = 0
KMC1 171121Z 22004KT M03/M06 A301 RMK A01 T10301060  RH  080%=      5-min Rain = 0
KMC1 171122Z 22004KT M03/M06 A301 RMK A01 T10301060  RH  080%=      5-min Rain = 0
KMC1 171123Z 23004KT M03/M06 A301 RMK A01 T10311061  RH  080%=      5-min Rain = 0
KMC1 171124Z 23004KT M03/M06 A301 RMK A01 T10321062  RH  080%=      5-min Rain = 0
KMC1 171125Z 23003KT M03/M06 A301 RMK A01 T10331062  RH  080%=      5-min Rain = 0
KMC1 171126Z 23004KT M03/M06 A301 RMK A01 T10341063  RH  080%=      5-min Rain = 0
KMC1 171127Z 24004KT M03/M06 A301 RMK A01 T10341063  RH  081%=      5-min Rain = 0
KMC1 171128Z 23004KT M04/M06 A301 RMK A01 T10351063  RH  081%=      5-min Rain = 0
KMC1 171129Z 24004KT M04/M06 A301 RMK A01 T10351062  RH  081%=      5-min Rain = 0
KMC1 171130Z 24004KT M04/M06 A301 RMK A01 T10351063  RH  081%=      5-min Rain = 0
KMC1 171131Z 23005KT M04/M06 A301 RMK A01 T10351062  RH  081%=      5-min Rain = 0
KMC1 171132Z 22005KT M04/M06 A301 RMK A01 T10351062  RH  082%=      5-min Rain = 0
KMC1 171133Z 23004KT M04/M06 A301 RMK A01 T10351062  RH  082%=      5-min Rain = 0
KMC1 171134Z 23004KT M04/M06 A301 RMK A01 T10351062  RH  082%=      5-min Rain = 0
KMC1 171135Z 22005KT M04/M06 A301 RMK A01 T10351062  RH  082%=      5-min Rain = 0
KMC1 171136Z 22005KT M04/M06 A301 RMK A01 T10351062  RH  082%=      5-min Rain = 0
KMC1 171137Z 21005KT M04/M06 A301 RMK A01 T10351062  RH  082%=      5-min Rain = 0
KMC1 171138Z 22004KT M03/M06 A301 RMK A01 T10341061  RH  082%=      5-min Rain = 0
KMC1 171139Z 22005KT M03/M06 A301 RMK A01 T10331060  RH  082%=      5-min Rain = 0
KMC1 171140Z 22005KT M03/M06 A301 RMK A01 T10321059  RH  082%=      5-min Rain = 0
KMC1 171141Z 21005KT M03/M06 A301 RMK A01 T10311059  RH  081%=      5-min Rain = 0
KMC1 171142Z 21005KT M03/M06 A301 RMK A01 T10311059  RH  081%=      5-min Rain = 0
KMC1 171143Z 22005KT M03/M06 A301 RMK A01 T10301059  RH  081%=      5-min Rain = 0
KMC1 171144Z 22003KT M03/M06 A301 RMK A01 T10301059  RH  081%=      5-min Rain = 0
KMC1 171145Z 22004KT M03/M06 A301 RMK A01 T10301059  RH  080%=      5-min Rain = 0
KMC1 171146Z 21004KT M03/M06 A301 RMK A01 T10301059  RH  080%=      5-min Rain = 0
KMC1 171147Z 22004KT M03/M06 A301 RMK A01 T10301059  RH  080%=      5-min Rain = 0
KMC1 171148Z 22004KT M03/M06 A301 RMK A01 T10301059  RH  080%=      5-min Rain = 0
KMC1 171149Z 23003KT M03/M06 A3011 RMK A01 T10291059  RH  080%=      5-min Rain = 0
KMC1 171150Z 24003KT M03/M06 A3011 RMK A01 T10291059  RH  080%=      5-min Rain = 0
KMC1 171151Z 23003KT M03/M06 A3011 RMK A01 T10291059  RH  080%=      5-min Rain = 0
KMC1 171152Z 24003KT M03/M06 A3011 RMK A01 T10291059  RH  080%=      5-min Rain = 0
KMC1 171153Z 23003KT M03/M06 A3011 RMK A01 T10301060  RH  080%=      5-min Rain = 0
KMC1 171154Z 23003KT M03/M06 A3011 RMK A01 T10301060  RH  080%=      5-min Rain = 0
KMC1 171155Z 22004KT M03/M06 A3011 RMK A01 T10311060  RH  080%=      5-min Rain = 0
KMC1 171156Z 22005KT M03/M06 A3011 RMK A01 T10311060  RH  081%=      5-min Rain = 0
KMC1 171157Z 22005KT M03/M06 A3011 RMK A01 T10321060  RH  081%=      5-min Rain = 0
KMC1 171158Z 22005KT M03/M06 A3011 RMK A01 T10321060  RH  081%=      5-min Rain = 0
KMC1 171159Z 22005KT M03/M06 A3011 RMK A01 T10311059  RH  081%=      5-min Rain = 0
KMC1 171200Z 22005KT M03/M06 A3011 RMK A01 T10311059  RH  081%=      5-min Rain = 0
KMC1 171201Z 22005KT M03/M06 A3011 RMK A01 T10301058  RH  081%=      5-min Rain = 0
KMC1 171202Z 21005KT M03/M06 A3011 RMK A01 T10291058  RH  080%=      5-min Rain = 0
KMC1 171203Z 22005KT M03/M06 A3011 RMK A01 T10281057  RH  080%=      5-min Rain = 0
KMC1 171204Z 22005KT M03/M06 A3011 RMK A01 T10271057  RH  080%=      5-min Rain = 0
KMC1 171205Z 22005KT M03/M06 A3011 RMK A01 T10271057  RH  079%=      5-min Rain = 0
KMC1 171206Z 21005KT M03/M06 A3011 RMK A01 T10261057  RH  079%=      5-min Rain = 0
KMC1 171207Z 21005KT M03/M06 A3011 RMK A01 T10261058  RH  079%=      5-min Rain = 0
KMC1 171208Z 21005KT M03/M06 A3011 RMK A01 T10251058  RH  078%=      5-min Rain = 0
KMC1 171209Z 21005KT M03/M06 A3011 RMK A01 T10251058  RH  078%=      5-min Rain = 0
KMC1 171210Z 21005KT M03/M06 A3011 RMK A01 T10251058  RH  078%=      5-min Rain = 0
KMC1 171211Z 21005KT M03/M06 A3011 RMK A01 T10251058  RH  078%=      5-min Rain = 0
KMC1 171212Z 22003KT M03/M06 A3011 RMK A01 T10251058  RH  078%=      5-min Rain = 0
KMC1 171213Z 23003KT M03/M06 A3011 RMK A01 T10251059  RH  077%=      5-min Rain = 0
KMC1 171214Z 23003KT M03/M06 A3011 RMK A01 T10271062  RH  077%=      5-min Rain = 0
KMC1 171215Z 23003KT M03/M06 A3012 RMK A01 T10301064  RH  078%=      5-min Rain = 0
KMC1 171216Z 23003KT M03/M07 A3012 RMK A01 T10321065  RH  078%=      5-min Rain = 0
KMC1 171217Z 22004KT M03/M07 A3012 RMK A01 T10341066  RH  079%=      5-min Rain = 0
KMC1 171218Z 23003KT M04/M07 A3012 RMK A01 T10361066  RH  080%=      5-min Rain = 0
KMC1 171219Z 23003KT M04/M07 A3012 RMK A01 T10371066  RH  081%=      5-min Rain = 0
KMC1 171220Z 22003KT M04/M07 A3012 RMK A01 T10391066  RH  081%=      5-min Rain = 0
KMC1 171221Z 22003KT M04/M07 A3012 RMK A01 T10391066  RH  082%=      5-min Rain = 0
KMC1 171222Z 22003KT M04/M07 A3012 RMK A01 T10401066  RH  082%=      5-min Rain = 0
KMC1 171223Z 21003KT M04/M07 A3012 RMK A01 T10401067  RH  082%=      5-min Rain = 0
KMC1 171224Z 21003KT M04/M07 A3012 RMK A01 T10411067  RH  082%=      5-min Rain = 0
KMC1 171225Z 20003KT M04/M07 A3012 RMK A01 T10421067  RH  083%=      5-min Rain = 0
KMC1 171226Z 20004KT M04/M07 A3012 RMK A01 T10411066  RH  083%=      5-min Rain = 0
KMC1 171227Z 20003KT M04/M07 A3012 RMK A01 T10421066  RH  083%=      5-min Rain = 0
KMC1 171228Z 19004KT M04/M07 A3012 RMK A01 T10421066  RH  083%=      5-min Rain = 0
KMC1 171229Z 19004KT M04/M07 A3012 RMK A01 T10421066  RH  083%=      5-min Rain = 0
KMC1 171230Z 20005KT M04/M07 A3012 RMK A01 T10411065  RH  084%=      5-min Rain = 0
KMC1 171231Z 20005KT M04/M06 A3012 RMK A01 T10411064  RH  084%=      5-min Rain = 0
KMC1 171232Z 20006KT M04/M06 A3012 RMK A01 T10391062  RH  084%=      5-min Rain = 0
KMC1 171233Z 20005KT M04/M06 A3012 RMK A01 T10371060  RH  084%=      5-min Rain = 0
KMC1 171234Z 21005KT M03/M06 A3012 RMK A01 T10341059  RH  083%=      5-min Rain = 0
KMC1 171235Z 21005KT M03/M06 A3012 RMK A01 T10331059  RH  082%=      5-min Rain = 0
KMC1 171236Z 20004KT M03/M06 A3012 RMK A01 T10321060  RH  081%=      5-min Rain = 0
KMC1 171237Z 20004KT M03/M06 A3012 RMK A01 T10311061  RH  080%=      5-min Rain = 0
KMC1 171238Z 20005KT M03/M06 A3012 RMK A01 T10311061  RH  080%=      5-min Rain = 0
KMC1 171239Z 21004KT M03/M06 A3012 RMK A01 T10311062  RH  080%=      5-min Rain = 0
KMC1 171240Z 22004KT M03/M06 A3012 RMK A01 T10311062  RH  079%=      5-min Rain = 0
KMC1 171241Z 23004KT M03/M06 A3012 RMK A01 T10321063  RH  079%=      5-min Rain = 0
KMC1 171242Z 23004KT M03/M07 A3012 RMK A01 T10341065  RH  079%=      5-min Rain = 0
KMC1 171243Z 23004KT M04/M07 A3013 RMK A01 T10371068  RH  079%=      5-min Rain = 0
KMC1 171244Z 24004KT M04/M07 A3013 RMK A01 T10391069  RH  080%=      5-min Rain = 0
KMC1 171245Z 24004KT M04/M07 A3013 RMK A01 T10411069  RH  081%=      5-min Rain = 0
KMC1 171246Z 24003KT M04/M07 A3013 RMK A01 T10421068  RH  082%=      5-min Rain = 0
KMC1 171247Z 24003KT M04/M07 A3013 RMK A01 T10431068  RH  083%=      5-min Rain = 0
KMC1 171248Z 24003KT M04/M07 A3013 RMK A01 T10431068  RH  083%=      5-min Rain = 0
KMC1 171249Z 24004KT M04/M07 A3013 RMK A01 T10441068  RH  083%=      5-min Rain = 0
KMC1 171250Z 24004KT M04/M07 A3013 RMK A01 T10441068  RH  083%=      5-min Rain = 0
KMC1 171251Z 24004KT M04/M07 A3013 RMK A01 T10441068  RH  083%=      5-min Rain = 0
KMC1 171252Z 23005KT M04/M07 A3013 RMK A01 T10441069  RH  083%=      5-min Rain = 0
KMC1 171253Z 23005KT M04/M07 A3014 RMK A01 T10441068  RH  083%=      5-min Rain = 0
KMC1 171254Z 24005KT M04/M07 A3014 RMK A01 T10441068  RH  083%=      5-min Rain = 0
KMC1 171255Z 24005KT M04/M07 A3014 RMK A01 T10441068  RH  084%=      5-min Rain = 0
KMC1 171256Z 24005KT M04/M07 A3014 RMK A01 T10431066  RH  084%=      5-min Rain = 0
KMC1 171257Z 24005KT M04/M07 A3014 RMK A01 T10421066  RH  084%=      5-min Rain = 0
KMC1 171258Z 25005KT M04/M07 A3014 RMK A01 T10411066  RH  083%=      5-min Rain = 0
KMC1 171259Z 24004KT M04/M07 A3014 RMK A01 T10411066  RH  083%=      5-min Rain = 0
KMC1 171300Z 25004KT M04/M07 A3014 RMK A01 T10411066  RH  083%=      5-min Rain = 0
KMC1 171301Z 25004KT M04/M07 A3014 RMK A01 T10421067  RH  083%=      5-min Rain = 0
KMC1 171302Z 25005KT M04/M07 A3014 RMK A01 T10421066  RH  083%=      5-min Rain = 0
KMC1 171303Z 25005KT M04/M07 A3014 RMK A01 T10421067  RH  083%=      5-min Rain = 0
KMC1 171304Z 25004KT M04/M07 A3014 RMK A01 T10421067  RH  083%=      5-min Rain = 0
KMC1 171305Z 25004KT M04/M07 A3014 RMK A01 T10421067  RH  083%=      5-min Rain = 0
KMC1 171306Z 24004KT M04/M07 A3014 RMK A01 T10421066  RH  083%=      5-min Rain = 0
KMC1 171307Z 24004KT M04/M07 A3014 RMK A01 T10421066  RH  084%=      5-min Rain = 0
KMC1 171308Z 24004KT M04/M07 A3014 RMK A01 T10421066  RH  084%=      5-min Rain = 0
KMC1 171309Z 23004KT M04/M07 A3014 RMK A01 T10421066  RH  084%=      5-min Rain = 0
KMC1 171310Z 23004KT M04/M07 A3014 RMK A01 T10421066  RH  083%=      5-min Rain = 0
KMC1 171311Z 22004KT M04/M07 A3014 RMK A01 T10401065  RH  083%=      5-min Rain = 0
KMC1 171312Z 22004KT M04/M06 A3014 RMK A01 T10391063  RH  083%=      5-min Rain = 0
KMC1 171313Z 22004KT M04/M06 A3014 RMK A01 T10371062  RH  083%=      5-min Rain = 0
KMC1 171314Z 22004KT M04/M06 A3014 RMK A01 T10361062  RH  082%=      5-min Rain = 0
KMC1 171315Z 22004KT M04/M06 A3014 RMK A01 T10351062  RH  082%=      5-min Rain = 0
KMC1 171316Z 22005KT M03/M06 A3014 RMK A01 T10341062  RH  081%=      5-min Rain = 0
KMC1 171317Z 22004KT M03/M06 A3014 RMK A01 T10341062  RH  081%=      5-min Rain = 0
KMC1 171318Z 22004KT M03/M06 A3014 RMK A01 T10341063  RH  080%=      5-min Rain = 0
KMC1 171319Z 22004KT M03/M06 A3014 RMK A01 T10331063  RH  080%=      5-min Rain = 0
KMC1 171320Z 21004KT M03/M06 A3014 RMK A01 T10331063  RH  080%=      5-min Rain = 0
KMC1 171321Z 21004KT M03/M06 A3014 RMK A01 T10331063  RH  079%=      5-min Rain = 0
KMC1 171322Z 22004KT M03/M06 A3014 RMK A01 T10331064  RH  079%=      5-min Rain = 0
KMC1 171323Z 22004KT M03/M06 A3014 RMK A01 T10331064  RH  079%=      5-min Rain = 0
KMC1 171324Z 22004KT M03/M06 A3014 RMK A01 T10331064  RH  079%=      5-min Rain = 0
KMC1 171325Z 22004KT M03/M06 A3014 RMK A01 T10321064  RH  079%=      5-min Rain = 0
KMC1 171326Z 23004KT M03/M06 A3014 RMK A01 T10321064  RH  079%=      5-min Rain = 0
KMC1 171327Z 22004KT M03/M06 A3014 RMK A01 T10321064  RH  078%=      5-min Rain = 0
KMC1 171328Z 22004KT M03/M06 A3014 RMK A01 T10321064  RH  078%=      5-min Rain = 0
KMC1 171329Z 23004KT M03/M06 A3014 RMK A01 T10321064  RH  079%=      5-min Rain = 0
KMC1 171330Z 24004KT M03/M06 A3014 RMK A01 T10321064  RH  079%=      5-min Rain = 0
KMC1 171331Z 24004KT M03/M06 A3015 RMK A01 T10311063  RH  079%=      5-min Rain = 0
KMC1 171332Z 24004KT M03/M06 A3015 RMK A01 T10311063  RH  078%=      5-min Rain = 0
KMC1 171333Z 24004KT M03/M06 A3015 RMK A01 T10311063  RH  078%=      5-min Rain = 0
KMC1 171334Z 24004KT M03/M06 A3015 RMK A01 T10311063  RH  078%=      5-min Rain = 0
KMC1 171335Z 25004KT M03/M06 A3015 RMK A01 T10321064  RH  079%=      5-min Rain = 0
KMC1 171336Z 25004KT M03/M06 A3015 RMK A01 T10321064  RH  079%=      5-min Rain = 0
KMC1 171337Z 25005KT M03/M06 A3015 RMK A01 T10331063  RH  080%=      5-min Rain = 0
KMC1 171338Z 25005KT M03/M06 A3015 RMK A01 T10331063  RH  080%=      5-min Rain = 0
KMC1 171339Z 24004KT M03/M06 A3015 RMK A01 T10331062  RH  080%=      5-min Rain = 0
KMC1 171340Z 24004KT M03/M06 A3015 RMK A01 T10321062  RH  080%=      5-min Rain = 0
KMC1 171341Z 23004KT M03/M06 A3015 RMK A01 T10321062  RH  080%=      5-min Rain = 0
KMC1 171342Z 23004KT M03/M06 A3015 RMK A01 T10321062  RH  080%=      5-min Rain = 0
KMC1 171343Z 23004KT M03/M06 A3015 RMK A01 T10311061  RH  080%=      5-min Rain = 0
KMC1 171344Z 23004KT M03/M06 A3015 RMK A01 T10311061  RH  080%=      5-min Rain = 0
KMC1 171345Z 24004KT M03/M06 A3015 RMK A01 T10311061  RH  079%=      5-min Rain = 0
KMC1 171346Z 24004KT M03/M06 A3015 RMK A01 T10301061  RH  079%=      5-min Rain = 0
KMC1 171347Z 24004KT M03/M06 A3015 RMK A01 T10311061  RH  079%=      5-min Rain = 0
KMC1 171348Z 24004KT M03/M06 A3015 RMK A01 T10311061  RH  079%=      5-min Rain = 0
KMC1 171349Z 24004KT M03/M06 A3015 RMK A01 T10301061  RH  079%=      5-min Rain = 0
KMC1 171350Z 24004KT M03/M06 A3015 RMK A01 T10301061  RH  079%=      5-min Rain = 0
KMC1 171351Z 24004KT M03/M06 A3015 RMK A01 T10311061  RH  080%=      5-min Rain = 0
KMC1 171352Z 24004KT M03/M06 A3015 RMK A01 T10311061  RH  080%=      5-min Rain = 0
KMC1 171353Z 24004KT M03/M06 A3015 RMK A01 T10311061  RH  080%=      5-min Rain = 0
KMC1 171354Z 24004KT M03/M06 A3015 RMK A01 T10311061  RH  080%=      5-min Rain = 0
KMC1 171355Z 24004KT M03/M06 A3016 RMK A01 T10301060  RH  080%=      5-min Rain = 0
KMC1 171356Z 24004KT M03/M06 A3016 RMK A01 T10301060  RH  080%=      5-min Rain = 0
KMC1 171357Z 24003KT M03/M06 A3016 RMK A01 T10301060  RH  080%=      5-min Rain = 0
KMC1 171358Z 24003KT M03/M06 A3016 RMK A01 T10291060  RH  079%=      5-min Rain = 0
KMC1 171359Z 25003KT M03/M06 A3016 RMK A01 T10291060  RH  079%=      5-min Rain = 0
KMC1 171400Z 25003KT M03/M06 A3016 RMK A01 T10291060  RH  079%=      5-min Rain = 0
KMC1 171401Z 26003KT M03/M06 A3016 RMK A01 T10291060  RH  079%=      5-min Rain = 0
KMC1 171402Z 26003KT M03/M06 A3016 RMK A01 T10291061  RH  079%=      5-min Rain = 0
KMC1 171403Z 26003KT M03/M06 A3016 RMK A01 T10301062  RH  078%=      5-min Rain = 0
KMC1 171404Z 26003KT M03/M06 A3016 RMK A01 T10311063  RH  078%=      5-min Rain = 0
KMC1 171405Z 26003KT M03/M06 A3016 RMK A01 T10311063  RH  078%=      5-min Rain = 0
KMC1 171406Z 26003KT M03/M06 A3016 RMK A01 T10311063  RH  079%=      5-min Rain = 0
KMC1 171407Z 26003KT M03/M06 A3016 RMK A01 T10311063  RH  079%=      5-min Rain = 0
KMC1 171408Z 26003KT M03/M06 A3016 RMK A01 T10301062  RH  079%=      5-min Rain = 0
KMC1 171409Z 27003KT M03/M06 A3016 RMK A01 T10301062  RH  079%=      5-min Rain = 0
KMC1 171410Z 27003KT M03/M06 A3016 RMK A01 T10301061  RH  079%=      5-min Rain = 0
KMC1 171411Z 27003KT M03/M06 A3016 RMK A01 T10291061  RH  079%=      5-min Rain = 0
KMC1 171412Z 26003KT M03/M06 A3016 RMK A01 T10281060  RH  079%=      5-min Rain = 0
KMC1 171413Z 26003KT M03/M06 A3016 RMK A01 T10271059  RH  079%=      5-min Rain = 0
KMC1 171414Z 26003KT M03/M06 A3016 RMK A01 T10271059  RH  079%=      5-min Rain = 0
KMC1 171415Z 26003KT M03/M06 A3016 RMK A01 T10261058  RH  079%=      5-min Rain = 0
KMC1 171416Z 26003KT M03/M06 A3016 RMK A01 T10251057  RH  079%=      5-min Rain = 0
KMC1 171417Z 26003KT M02/M06 A3016 RMK A01 T10241057  RH  078%=      5-min Rain = 0
KMC1 171418Z 26002KT M02/M06 A3016 RMK A01 T10231057  RH  078%=      5-min Rain = 0
KMC1 171419Z 26002KT M02/M06 A3017 RMK A01 T10231057  RH  077%=      5-min Rain = 0
KMC1 171420Z 25002KT M02/M06 A3017 RMK A01 T10221058  RH  076%=      5-min Rain = 0
KMC1 171421Z 24001KT M02/M06 A3017 RMK A01 T10221058  RH  076%=      5-min Rain = 0
KMC1 171422Z 24001KT M02/M06 A3017 RMK A01 T10211057  RH  076%=      5-min Rain = 0
KMC1 171423Z 25002KT M02/M06 A3017 RMK A01 T10211058  RH  076%=      5-min Rain = 0
KMC1 171424Z 25002KT M02/M06 A3017 RMK A01 T10201058  RH  075%=      5-min Rain = 0
KMC1 171425Z 25002KT M02/M06 A3017 RMK A01 T10191058  RH  075%=      5-min Rain = 0
KMC1 171426Z 25002KT M02/M06 A3017 RMK A01 T10181056  RH  075%=      5-min Rain = 0
KMC1 171427Z 25002KT M02/M06 A3017 RMK A01 T10181056  RH  075%=      5-min Rain = 0
KMC1 171428Z 25002KT M02/M06 A3017 RMK A01 T10171056  RH  075%=      5-min Rain = 0
KMC1 171429Z 25002KT M02/M06 A3017 RMK A01 T10171057  RH  074%=      5-min Rain = 0
KMC1 171430Z 25001KT M02/M06 A3017 RMK A01 T10161056  RH  074%=      5-min Rain = 0
KMC1 171431Z 25002KT M02/M06 A3017 RMK A01 T10151055  RH  074%=      5-min Rain = 0
KMC1 171432Z 26001KT M01/M05 A3017 RMK A01 T10141053  RH  075%=      5-min Rain = 0
KMC1 171433Z 25001KT M01/M05 A3017 RMK A01 T10131051  RH  075%=      5-min Rain = 0
KMC1 171434Z 25001KT M01/M05 A3017 RMK A01 T10121051  RH  074%=      5-min Rain = 0
KMC1 171435Z 25002KT M01/M05 A3017 RMK A01 T10111053  RH  073%=      5-min Rain = 0
KMC1 171436Z 25002KT M01/M06 A3017 RMK A01 T10111055  RH  072%=      5-min Rain = 0
KMC1 171437Z 24002KT M01/M06 A3017 RMK A01 T10101055  RH  071%=      5-min Rain = 0
KMC1 171438Z 24002KT M01/M06 A3017 RMK A01 T10101056  RH  071%=      5-min Rain = 0
KMC1 171439Z 24002KT M01/M06 A3017 RMK A01 T10091055  RH  071%=      5-min Rain = 0
KMC1 171440Z 23002KT M01/M05 A3017 RMK A01 T10081054  RH  071%=      5-min Rain = 0
KMC1 171441Z 23003KT M01/M05 A3017 RMK A01 T10071054  RH  071%=      5-min Rain = 0
KMC1 171442Z 23002KT M01/M05 A3017 RMK A01 T10061053  RH  070%=      5-min Rain = 0
KMC1 171443Z 24002KT M00/M05 A3017 RMK A01 T10041053  RH  070%=      5-min Rain = 0
KMC1 171444Z 24002KT M00/M05 A3017 RMK A01 T10031054  RH  069%=      5-min Rain = 0
KMC1 171445Z 25002KT M00/M05 A3017 RMK A01 T10021053  RH  068%=      5-min Rain = 0
KMC1 171446Z 24002KT M00/M05 A3017 RMK A01 T10011052  RH  068%=      5-min Rain = 0
KMC1 171447Z 24002KT 00/M05 A3017 RMK A01 T00011052  RH  068%=      5-min Rain = 0
KMC1 171448Z 23002KT 00/M05 A3017 RMK A01 T00021052  RH  067%=      5-min Rain = 0
KMC1 171449Z 23002KT 00/M05 A3017 RMK A01 T00031051  RH  067%=      5-min Rain = 0
KMC1 171450Z 23002KT 00/M05 A3017 RMK A01 T00041049  RH  067%=      5-min Rain = 0
KMC1 171451Z 22001KT 01/M05 A3017 RMK A01 T00061050  RH  066%=      5-min Rain = 0
KMC1 171452Z 22001KT 01/M05 A3017 RMK A01 T00071051  RH  065%=      5-min Rain = 0
KMC1 171453Z 23001KT 01/M05 A3017 RMK A01 T00081051  RH  065%=      5-min Rain = 0
KMC1 171454Z 22001KT 01/M05 A3017 RMK A01 T00091050  RH  065%=      5-min Rain = 0
KMC1 171455Z 23001KT 01/M05 A3017 RMK A01 T00111049  RH  064%=      5-min Rain = 0
KMC1 171456Z 23002KT 01/M05 A3017 RMK A01 T00121049  RH  064%=      5-min Rain = 0
KMC1 171457Z 24002KT 01/M05 A3017 RMK A01 T00131052  RH  062%=      5-min Rain = 0
KMC1 171458Z 24002KT 01/M05 A3017 RMK A01 T00141052  RH  062%=      5-min Rain = 0
KMC1 171459Z 25001KT 02/M05 A3017 RMK A01 T00151051  RH  062%=      5-min Rain = 0
KMC1 171500Z 25001KT 02/M05 A3017 RMK A01 T00161051  RH  061%=      5-min Rain = 0
KMC1 171501Z 23001KT 02/M05 A3017 RMK A01 T00171049  RH  062%=      5-min Rain = 0
KMC1 171502Z 24001KT 02/M05 A3017 RMK A01 T00181049  RH  061%=      5-min Rain = 0
KMC1 171503Z 24001KT 02/M05 A3017 RMK A01 T00191048  RH  061%=      5-min Rain = 0
KMC1 171504Z 23001KT 02/M05 A3017 RMK A01 T00211047  RH  061%=      5-min Rain = 0
KMC1 171505Z 22002KT 02/M05 A3017 RMK A01 T00221046  RH  061%=      5-min Rain = 0
KMC1 171506Z 23002KT 02/M05 A3017 RMK A01 T00241045  RH  060%=      5-min Rain = 0
KMC1 171507Z 22001KT 03/M05 A3017 RMK A01 T00251047  RH  059%=      5-min Rain = 0
KMC1 171508Z 21001KT 03/M05 A3017 RMK A01 T00261045  RH  059%=      5-min Rain = 0
KMC1 171509Z 19001KT 03/M05 A3017 RMK A01 T00281046  RH  058%=      5-min Rain = 0
KMC1 171510Z 19001KT 03/M04 A3017 RMK A01 T00291042  RH  059%=      5-min Rain = 0
KMC1 171511Z 18001KT 03/M04 A3017 RMK A01 T00321040  RH  059%=      5-min Rain = 0
KMC1 171512Z 17001KT 03/M04 A3017 RMK A01 T00341041  RH  058%=      5-min Rain = 0
KMC1 171513Z 18001KT 04/M04 A3016 RMK A01 T00361042  RH  057%=      5-min Rain = 0
KMC1 171514Z 18002KT 04/M04 A3016 RMK A01 T00381043  RH  055%=      5-min Rain = 0
KMC1 171515Z 18001KT 04/M04 A3016 RMK A01 T00391042  RH  055%=      5-min Rain = 0
KMC1 171516Z 19001KT 04/M04 A3016 RMK A01 T00411038  RH  056%=      5-min Rain = 0
KMC1 171517Z 19002KT 04/M04 A3016 RMK A01 T00431037  RH  056%=      5-min Rain = 0
KMC1 171518Z 22001KT 05/M04 A3016 RMK A01 T00451040  RH  054%=      5-min Rain = 0
KMC1 171519Z 22001KT 05/M04 A3016 RMK A01 T00471040  RH  054%=      5-min Rain = 0
KMC1 171520Z 20001KT 05/M04 A3017 RMK A01 T00481040  RH  053%=      5-min Rain = 0
KMC1 171521Z 22001KT 05/M04 A3017 RMK A01 T00501038  RH  053%=      5-min Rain = 0
KMC1 171522Z 24001KT 05/M04 A3017 RMK A01 T00511038  RH  052%=      5-min Rain = 0
KMC1 171523Z 22002KT 05/M04 A3017 RMK A01 T00521038  RH  052%=      5-min Rain = 0
KMC1 171524Z 21001KT 05/M04 A3017 RMK A01 T00541037  RH  052%=      5-min Rain = 0
KMC1 171525Z 20002KT 06/M04 A3017 RMK A01 T00561036  RH  052%=      5-min Rain = 0
KMC1 171526Z 19002KT 06/M04 A3017 RMK A01 T00581035  RH  051%=      5-min Rain = 0
KMC1 171527Z 21001KT 06/M03 A3017 RMK A01 T00601034  RH  051%=      5-min Rain = 0
KMC1 171528Z 22002KT 06/M03 A3017 RMK A01 T00621034  RH  050%=      5-min Rain = 0
KMC1 171529Z 19003KT 06/M04 A3017 RMK A01 T00631037  RH  049%=      5-min Rain = 0
KMC1 171530Z 20002KT 06/M04 A3017 RMK A01 T00641037  RH  048%=      5-min Rain = 0
KMC1 171531Z 19003KT 07/M04 A3017 RMK A01 T00651036  RH  049%=      5-min Rain = 0
KMC1 171532Z 22001KT 07/M04 A3017 RMK A01 T00671037  RH  048%=      5-min Rain = 0
KMC1 171533Z 21003KT 07/M04 A3017 RMK A01 T00681035  RH  048%=      5-min Rain = 0
KMC1 171534Z 24002KT 07/M03 A3017 RMK A01 T00691034  RH  048%=      5-min Rain = 0
KMC1 171535Z 28001KT 07/M03 A3017 RMK A01 T00711028  RH  049%=      5-min Rain = 0
KMC1 171536Z 27002KT 07/M02 A3017 RMK A01 T00721023  RH  051%=      5-min Rain = 0
KMC1 171537Z 28002KT 07/M03 A3017 RMK A01 T00721026  RH  049%=      5-min Rain = 0
KMC1 171538Z 29002KT 07/M03 A3018 RMK A01 T00721027  RH  049%=      5-min Rain = 0
KMC1 171539Z 28002KT 07/M02 A3018 RMK A01 T00721024  RH  051%=      5-min Rain = 0
KMC1 171540Z 29002KT 07/M03 A3018 RMK A01 T00721025  RH  050%=      5-min Rain = 0
KMC1 171541Z 29001KT 07/M03 A3018 RMK A01 T00711026  RH  050%=      5-min Rain = 0
KMC1 171542Z 28002KT 07/M03 A3018 RMK A01 T00711027  RH  050%=      5-min Rain = 0
KMC1 171543Z 27001KT 07/M03 A3018 RMK A01 T00711026  RH  050%=      5-min Rain = 0
KMC1 171544Z 28001KT 07/M03 A3018 RMK A01 T00711025  RH  050%=      5-min Rain = 0
KMC1 171545Z 21001KT 07/M02 A3018 RMK A01 T00731022  RH  051%=      5-min Rain = 0
KMC1 171546Z 25000KT 08/M02 A3018 RMK A01 T00751023  RH  050%=      5-min Rain = 0
KMC1 171547Z 21001KT 08/M03 A3018 RMK A01 T00771025  RH  048%=      5-min Rain = 0
KMC1 171548Z 19001KT 08/M03 A3018 RMK A01 T00781027  RH  047%=      5-min Rain = 0
KMC1 171549Z 20001KT 08/M03 A3018 RMK A01 T00801025  RH  047%=      5-min Rain = 0
KMC1 171550Z 20001KT 08/M02 A3018 RMK A01 T00841021  RH  048%=      5-min Rain = 0
KMC1 171551Z 19001KT 09/M02 A3018 RMK A01 T00861024  RH  046%=      5-min Rain = 0
KMC1 171552Z 19001KT 09/M03 A3018 RMK A01 T00871025  RH  045%=      5-min Rain = 0
KMC1 171553Z 20001KT 09/M03 A3018 RMK A01 T00871027  RH  044%=      5-min Rain = 0
KMC1 171554Z 18002KT 09/M02 A3018 RMK A01 T00891024  RH  045%=      5-min Rain = 0
KMC1 171555Z 20002KT 09/M03 A3018 RMK A01 T00921026  RH  043%=      5-min Rain = 0
KMC1 171556Z 21002KT 09/M03 A3018 RMK A01 T00941026  RH  043%=      5-min Rain = 0
KMC1 171557Z 21002KT 10/M02 A3018 RMK A01 T00961024  RH  043%=      5-min Rain = 0
KMC1 171558Z 21003KT 10/M03 A3018 RMK A01 T00991028  RH  041%=      5-min Rain = 0
KMC1 171559Z 19002KT 10/M03 A3018 RMK A01 T00991033  RH  039%=      5-min Rain = 0
KMC1 171600Z 21002KT 10/M03 A3018 RMK A01 T01011030  RH  040%=      5-min Rain = 0
KMC1 171601Z 22003KT 10/M04 A3018 RMK A01 T01021035  RH  038%=      5-min Rain = 0
KMC1 171602Z 19002KT 10/M04 A3018 RMK A01 T01041035  RH  038%=      5-min Rain = 0
KMC1 171603Z 22002KT 10/M04 A3018 RMK A01 T01041038  RH  037%=      5-min Rain = 0
KMC1 171604Z 21003KT 10/M04 A3018 RMK A01 T01041040  RH  036%=      5-min Rain = 0
KMC1 171605Z 21002KT 11/M04 A3018 RMK A01 T01051041  RH  036%=      5-min Rain = 0
KMC1 171606Z 19003KT 10/M04 A3018 RMK A01 T01041040  RH  036%=      5-min Rain = 0
KMC1 171607Z 20002KT 11/M03 A3018 RMK A01 T01061033  RH  037%=      5-min Rain = 0
KMC1 171608Z 19002KT 11/M04 A3018 RMK A01 T01081037  RH  036%=      5-min Rain = 0
KMC1 171609Z 20003KT 11/M04 A3018 RMK A01 T01101040  RH  035%=      5-min Rain = 0
KMC1 171610Z 19003KT 11/M05 A3018 RMK A01 T01111045  RH  033%=      5-min Rain = 0
KMC1 171611Z 19003KT 11/M04 A3018 RMK A01 T01111042  RH  034%=      5-min Rain = 0
KMC1 171612Z 19003KT 11/M04 A3018 RMK A01 T01121041  RH  034%=      5-min Rain = 0
KMC1 171613Z 20003KT 11/M04 A3018 RMK A01 T01141039  RH  034%=      5-min Rain = 0
KMC1 171614Z 20003KT 12/M04 A3018 RMK A01 T01151039  RH  034%=      5-min Rain = 0
KMC1 171615Z 20003KT 12/M04 A3018 RMK A01 T01171042  RH  033%=      5-min Rain = 0
KMC1 171616Z 20001KT 12/M04 A3018 RMK A01 T01181037  RH  034%=      5-min Rain = 0
KMC1 171617Z 21002KT 12/M04 A3018 RMK A01 T01201036  RH  033%=      5-min Rain = 0
KMC1 171618Z 20002KT 12/M04 A3018 RMK A01 T01211040  RH  032%=      5-min Rain = 0
KMC1 171619Z 23001KT 12/M04 A3018 RMK A01 T01221039  RH  032%=      5-min Rain = 0
KMC1 171620Z 28002KT 12/M03 A3018 RMK A01 T01221034  RH  034%=      5-min Rain = 0
KMC1 171621Z 24002KT 12/M03 A3018 RMK A01 T01221034  RH  034%=      5-min Rain = 0
KMC1 171622Z 25002KT 12/M04 A3018 RMK A01 T01221038  RH  033%=      5-min Rain = 0
KMC1 171623Z 25003KT 12/M04 A3018 RMK A01 T01221040  RH  032%=      5-min Rain = 0
KMC1 171624Z 22002KT 12/M04 A3018 RMK A01 T01221043  RH  031%=      5-min Rain = 0
KMC1 171625Z 18002KT 12/M04 A3018 RMK A01 T01221043  RH  031%=      5-min Rain = 0
KMC1 171626Z 20001KT 12/M04 A3018 RMK A01 T01231041  RH  032%=      5-min Rain = 0
KMC1 171627Z 18000KT 13/M04 A3018 RMK A01 T01261043  RH  030%=      5-min Rain = 0
KMC1 171628Z 31000KT 13/M04 A3018 RMK A01 T01281042  RH  030%=      5-min Rain = 0
KMC1 171629Z 18002KT 13/M04 A3018 RMK A01 T01291042  RH  030%=      5-min Rain = 0
KMC1 171630Z 18001KT 13/M05 A3018 RMK A01 T01291046  RH  029%=      5-min Rain = 0
KMC1 171631Z 00000KT 13/M05 A3018 RMK A01 T01291048  RH  029%=      5-min Rain = 0
KMC1 171632Z 22000KT 13/M04 A3018 RMK A01 T01291044  RH  030%=      5-min Rain = 0
KMC1 171633Z 32001KT 13/M04 A3018 RMK A01 T01291035  RH  032%=      5-min Rain = 0
KMC1 171634Z 33004KT 13/M04 A3018 RMK A01 T01291036  RH  031%=      5-min Rain = 0
KMC1 171635Z 32003KT 13/M04 A3018 RMK A01 T01281039  RH  031%=      5-min Rain = 0
KMC1 171636Z 34003KT 13/M04 A3018 RMK A01 T01261036  RH  032%=      5-min Rain = 0
KMC1 171637Z 33003KT 13/M03 A3018 RMK A01 T01251034  RH  033%=      5-min Rain = 0
KMC1 171638Z 30004KT 13/M03 A3018 RMK A01 T01261033  RH  033%=      5-min Rain = 0
KMC1 171639Z 31004KT 13/M03 A3018 RMK A01 T01271034  RH  033%=      5-min Rain = 0
KMC1 171640Z 31004KT 13/M03 A3018 RMK A01 T01271029  RH  034%=      5-min Rain = 0
KMC1 171641Z 31004KT 13/M03 A3018 RMK A01 T01281028  RH  034%=      5-min Rain = 0
KMC1 171642Z 30002KT 13/M03 A3018 RMK A01 T01291030  RH  033%=      5-min Rain = 0
KMC1 171643Z 30003KT 13/M03 A3018 RMK A01 T01291027  RH  034%=      5-min Rain = 0
KMC1 171644Z 28003KT 13/M03 A3018 RMK A01 T01301025  RH  034%=      5-min Rain = 0
KMC1 171645Z 27004KT 13/M03 A3018 RMK A01 T01301028  RH  033%=      5-min Rain = 0
KMC1 171646Z 28003KT 13/M03 A3018 RMK A01 T01301027  RH  034%=      5-min Rain = 0
KMC1 171647Z 30002KT 13/M03 A3018 RMK A01 T01291029  RH  033%=      5-min Rain = 0
KMC1 171648Z 31002KT 13/M03 A3018 RMK A01 T01281029  RH  033%=      5-min Rain = 0
KMC1 171649Z 32003KT 13/M03 A3018 RMK A01 T01281029  RH  033%=      5-min Rain = 0
KMC1 171650Z 30003KT 13/M03 A3018 RMK A01 T01281031  RH  033%=      5-min Rain = 0
KMC1 171651Z 28002KT 13/M03 A3018 RMK A01 T01281025  RH  034%=      5-min Rain = 0
KMC1 171652Z 28001KT 13/M03 A3018 RMK A01 T01291025  RH  034%=      5-min Rain = 0
KMC1 171653Z 29002KT 13/M03 A3018 RMK A01 T01301026  RH  034%=      5-min Rain = 0
KMC1 171654Z 30002KT 13/M02 A3018 RMK A01 T01321024  RH  034%=      5-min Rain = 0
KMC1 171655Z 29004KT 13/M03 A3018 RMK A01 T01331025  RH  033%=      5-min Rain = 0
KMC1 171656Z 26003KT 13/M03 A3018 RMK A01 T01321028  RH  033%=      5-min Rain = 0
KMC1 171657Z 24002KT 13/M03 A3018 RMK A01 T01301031  RH  033%=      5-min Rain = 0
KMC1 171658Z 31001KT 13/M03 A3018 RMK A01 T01291029  RH  033%=      5-min Rain = 0
KMC1 171659Z 30002KT 13/M03 A3018 RMK A01 T01301027  RH  034%=      5-min Rain = 0
KMC1 171700Z 32002KT 13/M03 A3018 RMK A01 T01311026  RH  033%=      5-min Rain = 0
KMC1 171701Z 30002KT 13/M03 A3018 RMK A01 T01331030  RH  032%=      5-min Rain = 0
KMC1 171702Z 27002KT 13/M03 A3018 RMK A01 T01331031  RH  032%=      5-min Rain = 0
KMC1 171703Z 21000KT 13/M03 A3018 RMK A01 T01341030  RH  032%=      5-min Rain = 0
KMC1 171704Z 30001KT 14/M03 A3018 RMK A01 T01351031  RH  032%=      5-min Rain = 0
KMC1 171705Z 30001KT 14/M03 A3018 RMK A01 T01361028  RH  032%=      5-min Rain = 0
KMC1 171706Z 29004KT 14/M03 A3018 RMK A01 T01371026  RH  032%=      5-min Rain = 0
KMC1 171707Z 29005KT 14/M03 A3018 RMK A01 T01391032  RH  031%=      5-min Rain = 0
KMC1 171708Z 29005KT 14/M04 A3018 RMK A01 T01391040  RH  029%=      5-min Rain = 0
KMC1 171709Z 30006KT 14/M04 A3018 RMK A01 T01371037  RH  030%=      5-min Rain = 0
KMC1 171710Z 30007KT 14/M04 A3018 RMK A01 T01371038  RH  030%=      5-min Rain = 0
KMC1 171711Z 31006KT 14/M04 A3018 RMK A01 T01371038  RH  029%=      5-min Rain = 0
KMC1 171712Z 31005KT 14/M04 A3018 RMK A01 T01391036  RH  030%=      5-min Rain = 0
KMC1 171713Z 30005KT 14/M04 A3018 RMK A01 T01401036  RH  029%=      5-min Rain = 0
KMC1 171714Z 30003KT 14/M04 A3018 RMK A01 T01411040  RH  028%=      5-min Rain = 0
KMC1 171715Z 27004KT 14/M04 A3018 RMK A01 T01411039  RH  029%=      5-min Rain = 0
KMC1 171716Z 26003KT 14/M04 A3018 RMK A01 T01401039  RH  029%=      5-min Rain = 0
KMC1 171717Z 30005KT 14/M04 A3018 RMK A01 T01411040  RH  028%=      5-min Rain = 0
KMC1 171718Z 29004KT 14/M05 A3018 RMK A01 T01391045  RH  028%=      5-min Rain = 0
KMC1 171719Z 29004KT 14/M05 A3018 RMK A01 T01381046  RH  028%=      5-min Rain = 0
KMC1 171720Z 29006KT 14/M05 A3017 RMK A01 T01381045  RH  028%=      5-min Rain = 0
KMC1 171721Z 27006KT 14/M04 A3017 RMK A01 T01381043  RH  028%=      5-min Rain = 0
KMC1 171722Z 28006KT 14/M05 A3017 RMK A01 T01391045  RH  028%=      5-min Rain = 0
KMC1 171723Z 27006KT 14/M05 A3017 RMK A01 T01391047  RH  027%=      5-min Rain = 0
KMC1 171724Z 27005KT 14/M05 A3017 RMK A01 T01391048  RH  027%=      5-min Rain = 0
KMC1 171725Z 29004KT 14/M05 A3017 RMK A01 T01391047  RH  027%=      5-min Rain = 0
KMC1 171726Z 27004KT 14/M05 A3017 RMK A01 T01401046  RH  027%=      5-min Rain = 0
KMC1 171727Z 27006KT 14/M05 A3017 RMK A01 T01421046  RH  027%=      5-min Rain = 0
KMC1 171728Z 26005KT 14/M05 A3017 RMK A01 T01421050  RH  026%=      5-min Rain = 0
KMC1 171729Z 25005KT 14/M05 A3017 RMK A01 T01411048  RH  027%=      5-min Rain = 0
KMC1 171730Z 26002KT 14/M05 A3017 RMK A01 T01411049  RH  026%=      5-min Rain = 0
KMC1 171731Z 28003KT 14/M05 A3017 RMK A01 T01411046  RH  027%=      5-min Rain = 0
KMC1 171732Z 28005KT 14/M05 A3017 RMK A01 T01421049  RH  026%=      5-min Rain = 0
KMC1 171733Z 27005KT 14/M05 A3017 RMK A01 T01431045  RH  027%=      5-min Rain = 0
KMC1 171734Z 29003KT 14/M05 A3016 RMK A01 T01441045  RH  027%=      5-min Rain = 0
KMC1 171735Z 30004KT 14/M04 A3016 RMK A01 T01441044  RH  027%=      5-min Rain = 0
KMC1 171736Z 29003KT 15/M04 A3017 RMK A01 T01461040  RH  027%=      5-min Rain = 0
KMC1 171737Z 26003KT 15/M04 A3016 RMK A01 T01481040  RH  027%=      5-min Rain = 0
KMC1 171738Z 24003KT 15/M04 A3016 RMK A01 T01491040  RH  027%=      5-min Rain = 0
KMC1 171739Z 23004KT 15/M05 A3016 RMK A01 T01491045  RH  026%=      5-min Rain = 0
KMC1 171740Z 24005KT 15/M05 A3016 RMK A01 T01481045  RH  026%=      5-min Rain = 0
KMC1 171741Z 26005KT 15/M05 A3016 RMK A01 T01471045  RH  026%=      5-min Rain = 0
KMC1 171742Z 28007KT 15/M05 A3016 RMK A01 T01471045  RH  026%=      5-min Rain = 0
KMC1 171743Z 29005KT 15/M05 A3016 RMK A01 T01451049  RH  026%=      5-min Rain = 0
KMC1 171744Z 29006KT 14/M05 A3016 RMK A01 T01431049  RH  026%=      5-min Rain = 0
KMC1 171745Z 30005KT 14/M05 A3016 RMK A01 T01421050  RH  026%=      5-min Rain = 0
KMC1 171746Z 29006KT 14/M05 A3016 RMK A01 T01411049  RH  026%=      5-min Rain = 0
KMC1 171747Z 27005KT 14/M05 A3016 RMK A01 T01411045  RH  027%=      5-min Rain = 0
KMC1 171748Z 27006KT 14/M05 A3016 RMK A01 T01441047  RH  026%=      5-min Rain = 0
KMC1 171749Z 28004KT 14/M04 A3016 RMK A01 T01441044  RH  027%=      5-min Rain = 0
KMC1 171750Z 29006KT 15/M04 A3016 RMK A01 T01471042  RH  027%=      5-min Rain = 0
KMC1 171751Z 29005KT 15/M05 A3016 RMK A01 T01481049  RH  025%=      5-min Rain = 0
KMC1 171752Z 28004KT 15/M05 A3016 RMK A01 T01451048  RH  026%=      5-min Rain = 0
KMC1 171753Z 27006KT 15/M05 A3016 RMK A01 T01451045  RH  027%=      5-min Rain = 0
KMC1 171754Z 26005KT 15/M05 A3016 RMK A01 T01471046  RH  026%=      5-min Rain = 0
KMC1 171755Z 28005KT 15/M05 A3016 RMK A01 T01471047  RH  026%=      5-min Rain = 0
KMC1 171756Z 28006KT 15/M05 A3016 RMK A01 T01471048  RH  026%=      5-min Rain = 0
KMC1 171757Z 29005KT 15/M05 A3016 RMK A01 T01461050  RH  025%=      5-min Rain = 0
KMC1 171758Z 30006KT 15/M05 A3016 RMK A01 T01461050  RH  025%=      5-min Rain = 0
KMC1 171759Z 31006KT 15/M05 A3016 RMK A01 T01461049  RH  026%=      5-min Rain = 0
KMC1 171800Z 31005KT 15/M05 A3016 RMK A01 T01461048  RH  026%=      5-min Rain = 0
KMC1 171801Z 30004KT 15/M05 A3016 RMK A01 T01471049  RH  025%=      5-min Rain = 0
KMC1 171802Z 31006KT 15/M05 A3016 RMK A01 T01481049  RH  025%=      5-min Rain = 0
KMC1 171803Z 26005KT 15/M05 A3016 RMK A01 T01471048  RH  026%=      5-min Rain = 0
KMC1 171804Z 25003KT 15/M05 A3016 RMK A01 T01461052  RH  025%=      5-min Rain = 0
KMC1 171805Z 28003KT 14/M05 A3015 RMK A01 T01441051  RH  026%=      5-min Rain = 0
KMC1 171806Z 27006KT 14/M05 A3015 RMK A01 T01441052  RH  025%=      5-min Rain = 0
KMC1 171807Z 27005KT 15/M05 A3015 RMK A01 T01451048  RH  026%=      5-min Rain = 0
KMC1 171808Z 29004KT 15/M05 A3015 RMK A01 T01471046  RH  026%=      5-min Rain = 0
KMC1 171809Z 30004KT 15/M05 A3015 RMK A01 T01481049  RH  025%=      5-min Rain = 0
KMC1 171810Z 31003KT 15/M05 A3015 RMK A01 T01471048  RH  026%=      5-min Rain = 0
KMC1 171811Z 36001KT 15/M05 A3015 RMK A01 T01471047  RH  026%=      5-min Rain = 0
KMC1 171812Z 27002KT 15/M05 A3015 RMK A01 T01471050  RH  025%=      5-min Rain = 0
KMC1 171813Z 24005KT 15/M05 A3015 RMK A01 T01481047  RH  026%=      5-min Rain = 0
KMC1 171814Z 23004KT 15/M05 A3015 RMK A01 T01501045  RH  026%=      5-min Rain = 0
KMC1 171815Z 22003KT 15/M04 A3015 RMK A01 T01511043  RH  026%=      5-min Rain = 0
KMC1 171816Z 22003KT 15/M04 A3015 RMK A01 T01521044  RH  026%=      5-min Rain = 0
KMC1 171817Z 21003KT 15/M04 A3014 RMK A01 T01521043  RH  026%=      5-min Rain = 0
KMC1 171818Z 21004KT 15/M04 A3014 RMK A01 T01531042  RH  026%=      5-min Rain = 0
KMC1 171819Z 18004KT 15/M05 A3014 RMK A01 T01521047  RH  025%=      5-min Rain = 0
KMC1 171820Z 20003KT 15/M05 A3014 RMK A01 T01511045  RH  026%=      5-min Rain = 0
KMC1 171821Z 22003KT 15/M04 A3014 RMK A01 T01521044  RH  026%=      5-min Rain = 0
KMC1 171822Z 23003KT 15/M05 A3014 RMK A01 T01521049  RH  025%=      5-min Rain = 0
KMC1 171823Z 29003KT 15/M05 A3014 RMK A01 T01511047  RH  025%=      5-min Rain = 0
KMC1 171824Z 28005KT 15/M05 A3014 RMK A01 T01511045  RH  026%=      5-min Rain = 0
KMC1 171825Z 29007KT 15/M04 A3014 RMK A01 T01531043  RH  026%=      5-min Rain = 0
KMC1 171826Z 28006KT 15/M05 A3014 RMK A01 T01541045  RH  025%=      5-min Rain = 0
KMC1 171827Z 30004KT 15/M05 A3014 RMK A01 T01501050  RH  025%=      5-min Rain = 0
KMC1 171828Z 26004KT 15/M04 A3014 RMK A01 T01481044  RH  026%=      5-min Rain = 0
KMC1 171829Z 26003KT 15/M05 A3014 RMK A01 T01491048  RH  025%=      5-min Rain = 0
KMC1 171830Z 29002KT 15/M05 A3014 RMK A01 T01481049  RH  025%=      5-min Rain = 0
KMC1 171831Z 24004KT 15/M05 A3014 RMK A01 T01471048  RH  026%=      5-min Rain = 0
KMC1 171832Z 23001KT 15/M05 A3014 RMK A01 T01461051  RH  025%=      5-min Rain = 0
KMC1 171833Z 18001KT 15/M05 A3014 RMK A01 T01461048  RH  026%=      5-min Rain = 0
KMC1 171834Z 18001KT 15/M04 A3014 RMK A01 T01491044  RH  026%=      5-min Rain = 0
KMC1 171835Z 19002KT 15/M05 A3014 RMK A01 T01521045  RH  025%=      5-min Rain = 0
KMC1 171836Z 22002KT 15/M05 A3013 RMK A01 T01531046  RH  025%=      5-min Rain = 0
KMC1 171837Z 30003KT 16/M04 A3013 RMK A01 T01551043  RH  025%=      5-min Rain = 0
KMC1 171838Z 22005KT 16/M04 A3013 RMK A01 T01561043  RH  025%=      5-min Rain = 0
KMC1 171839Z 23004KT 16/M04 A3013 RMK A01 T01551043  RH  025%=      5-min Rain = 0
KMC1 171840Z 21003KT 15/M05 A3013 RMK A01 T01521049  RH  025%=      5-min Rain = 0
KMC1 171841Z 21005KT 15/M04 A3013 RMK A01 T01511044  RH  026%=      5-min Rain = 0
KMC1 171842Z 19003KT 15/M04 A3013 RMK A01 T01541042  RH  026%=      5-min Rain = 0
KMC1 171843Z 22004KT 16/M04 A3013 RMK A01 T01561043  RH  025%=      5-min Rain = 0
KMC1 171844Z 19004KT 16/M05 A3013 RMK A01 T01551046  RH  025%=      5-min Rain = 0
KMC1 171845Z 17005KT 15/M05 A3013 RMK A01 T01541046  RH  025%=      5-min Rain = 0
KMC1 171846Z 23004KT 15/M04 A3013 RMK A01 T01541043  RH  025%=      5-min Rain = 0
KMC1 171847Z 22003KT 16/M04 A3013 RMK A01 T01561043  RH  025%=      5-min Rain = 0
KMC1 171848Z 20003KT 16/M05 A3013 RMK A01 T01561047  RH  024%=      5-min Rain = 0
KMC1 171849Z 20004KT 16/M04 A3013 RMK A01 T01571044  RH  025%=      5-min Rain = 0
KMC1 171850Z 24003KT 16/M05 A3013 RMK A01 T01571045  RH  025%=      5-min Rain = 0
KMC1 171851Z 27005KT 16/M04 A3013 RMK A01 T01581041  RH  025%=      5-min Rain = 0
KMC1 171852Z 27003KT 16/M04 A3013 RMK A01 T01581044  RH  025%=      5-min Rain = 0
KMC1 171853Z 27004KT 16/M05 A3013 RMK A01 T01561045  RH  025%=      5-min Rain = 0
KMC1 171854Z 29005KT 16/M04 A3013 RMK A01 T01551043  RH  025%=      5-min Rain = 0
KMC1 171855Z 29004KT 16/M04 A3013 RMK A01 T01561039  RH  026%=      5-min Rain = 0
KMC1 171856Z 29005KT 16/M04 A3013 RMK A01 T01581041  RH  025%=      5-min Rain = 0
KMC1 171857Z 31004KT 16/M04 A3013 RMK A01 T01581044  RH  025%=      5-min Rain = 0
KMC1 171858Z 31004KT 16/M04 A3013 RMK A01 T01571043  RH  025%=      5-min Rain = 0
KMC1 171859Z 30003KT 16/M05 A3012 RMK A01 T01561045  RH  025%=      5-min Rain = 0
KMC1 171900Z 28004KT 16/M04 A3012 RMK A01 T01561043  RH  025%=      5-min Rain = 0
KMC1 171901Z 31004KT 16/M04 A3012 RMK A01 T01551043  RH  025%=      5-min Rain = 0
KMC1 171902Z 35003KT 16/M04 A3012 RMK A01 T01551044  RH  025%=      5-min Rain = 0
KMC1 171903Z 01004KT 16/M04 A3012 RMK A01 T01551043  RH  025%=      5-min Rain = 0
KMC1 171904Z 04003KT 15/M04 A3012 RMK A01 T01541044  RH  025%=      5-min Rain = 0
KMC1 171905Z 04001KT 15/M04 A3012 RMK A01 T01541042  RH  026%=      5-min Rain = 0
KMC1 171906Z 34002KT 16/M04 A3012 RMK A01 T01571037  RH  026%=      5-min Rain = 0
KMC1 171907Z 29004KT 16/M04 A3012 RMK A01 T01601041  RH  025%=      5-min Rain = 0
KMC1 171908Z 29004KT 16/M04 A3012 RMK A01 T01591043  RH  025%=      5-min Rain = 0
KMC1 171909Z 27005KT 16/M04 A3012 RMK A01 T01591044  RH  024%=      5-min Rain = 0
KMC1 171910Z 27005KT 16/M04 A3012 RMK A01 T01581041  RH  025%=      5-min Rain = 0
KMC1 171911Z 27005KT 16/M04 A3012 RMK A01 T01591040  RH  025%=      5-min Rain = 0
KMC1 171912Z 28005KT 16/M04 A3012 RMK A01 T01601041  RH  025%=      5-min Rain = 0
KMC1 171913Z 29004KT 16/M04 A3012 RMK A01 T01611040  RH  025%=      5-min Rain = 0
KMC1 171914Z 29001KT 16/M05 A3012 RMK A01 T01601047  RH  024%=      5-min Rain = 0
KMC1 171915Z 27002KT 16/M05 A3012 RMK A01 T01581045  RH  024%=      5-min Rain = 0
KMC1 171916Z 27000KT 16/M05 A3012 RMK A01 T01571046  RH  024%=      5-min Rain = 0
KMC1 171917Z 25002KT 16/M05 A3011 RMK A01 T01581045  RH  024%=      5-min Rain = 0
KMC1 171918Z 25002KT 16/M04 A3011 RMK A01 T01591043  RH  025%=      5-min Rain = 0
KMC1 171919Z 29001KT 16/M04 A3011 RMK A01 T01601044  RH  024%=      5-min Rain = 0
KMC1 171920Z 35000KT 16/M05 A3011 RMK A01 T01591046  RH  024%=      5-min Rain = 0
KMC1 171921Z 01000KT 16/M05 A3011 RMK A01 T01591046  RH  024%=      5-min Rain = 0
KMC1 171922Z 03000KT 16/M05 A3011 RMK A01 T01581047  RH  024%=      5-min Rain = 0
KMC1 171923Z 01001KT 16/M04 A3011 RMK A01 T01581041  RH  025%=      5-min Rain = 0
KMC1 171924Z 24001KT 16/M04 A3011 RMK A01 T01611042  RH  025%=      5-min Rain = 0
KMC1 171925Z 20002KT 16/M04 A3011 RMK A01 T01621042  RH  024%=      5-min Rain = 0
KMC1 171926Z 21001KT 16/M04 A3011 RMK A01 T01631044  RH  024%=      5-min Rain = 0
KMC1 171927Z 09001KT 16/M04 A3011 RMK A01 T01631043  RH  024%=      5-min Rain = 0
KMC1 171928Z 02004KT 16/M04 A3011 RMK A01 T01641042  RH  024%=      5-min Rain = 0
KMC1 171929Z 02003KT 16/M04 A3011 RMK A01 T01631042  RH  024%=      5-min Rain = 0
KMC1 171930Z 00003KT 16/M04 A3011 RMK A01 T01621040  RH  025%=      5-min Rain = 0
KMC1 171931Z 02004KT 16/M04 A3011 RMK A01 T01621040  RH  025%=      5-min Rain = 0
KMC1 171932Z 04003KT 16/M04 A3011 RMK A01 T01621041  RH  024%=      5-min Rain = 0
KMC1 171933Z 02002KT 16/M04 A3011 RMK A01 T01621043  RH  024%=      5-min Rain = 0
KMC1 171934Z 05003KT 16/M04 A3011 RMK A01 T01621041  RH  025%=      5-min Rain = 0
KMC1 171935Z 04003KT 16/M04 A3011 RMK A01 T01621042  RH  024%=      5-min Rain = 0
KMC1 171936Z 06001KT 16/M04 A3011 RMK A01 T01601042  RH  025%=      5-min Rain = 0
KMC1 171937Z 05004KT 16/M04 A3011 RMK A01 T01611039  RH  025%=      5-min Rain = 0
KMC1 171938Z 06002KT 16/M04 A3011 RMK A01 T01611042  RH  024%=      5-min Rain = 0
KMC1 171939Z 04001KT 16/M05 A3011 RMK A01 T01601046  RH  024%=      5-min Rain = 0
KMC1 171940Z 33002KT 16/M04 A3011 RMK A01 T01591044  RH  025%=      5-min Rain = 0
KMC1 171941Z 31004KT 16/M04 A3011 RMK A01 T01601040  RH  025%=      5-min Rain = 0
KMC1 171942Z 30005KT 16/M04 A3011 RMK A01 T01621038  RH  025%=      5-min Rain = 0
KMC1 171943Z 32004KT 16/M04 A301 RMK A01 T01631042  RH  024%=      5-min Rain = 0
KMC1 171944Z 30003KT 16/M04 A301 RMK A01 T01621042  RH  024%=      5-min Rain = 0
KMC1 171945Z 30004KT 16/M04 A301 RMK A01 T01621039  RH  025%=      5-min Rain = 0
KMC1 171946Z 30004KT 16/M04 A301 RMK A01 T01641037  RH  025%=      5-min Rain = 0
KMC1 171947Z 31003KT 16/M05 A301 RMK A01 T01631045  RH  024%=      5-min Rain = 0
KMC1 171948Z 32003KT 16/M04 A301 RMK A01 T01611044  RH  024%=      5-min Rain = 0
KMC1 171949Z 32001KT 16/M05 A301 RMK A01 T01601046  RH  024%=      5-min Rain = 0
KMC1 171950Z 00001KT 16/M05 A301 RMK A01 T01591045  RH  024%=      5-min Rain = 0
KMC1 171951Z 33003KT 16/M04 A301 RMK A01 T01591044  RH  024%=      5-min Rain = 0
KMC1 171952Z 33002KT 16/M04 A301 RMK A01 T01601041  RH  025%=      5-min Rain = 0
KMC1 171953Z 34003KT 16/M04 A301 RMK A01 T01611040  RH  025%=      5-min Rain = 0
KMC1 171954Z 36003KT 16/M04 A301 RMK A01 T01621043  RH  024%=      5-min Rain = 0
KMC1 171955Z 34002KT 16/M04 A301 RMK A01 T01611042  RH  025%=      5-min Rain = 0
KMC1 171956Z 33003KT 16/M04 A3009 RMK A01 T01611039  RH  025%=      5-min Rain = 0
KMC1 171957Z 35005KT 16/M04 A3009 RMK A01 T01631039  RH  025%=      5-min Rain = 0
KMC1 171958Z 36004KT 16/M04 A3009 RMK A01 T01631043  RH  024%=      5-min Rain = 0
KMC1 171959Z 35003KT 16/M04 A301 RMK A01 T01631041  RH  025%=      5-min Rain = 0
KMC1 172000Z 35003KT 16/M04 A301 RMK A01 T01631041  RH  024%=      5-min Rain = 0
KMC1 172001Z 36003KT 16/M04 A301 RMK A01 T01631041  RH  024%=      5-min Rain = 0
KMC1 172002Z 35003KT 16/M04 A301 RMK A01 T01631042  RH  024%=      5-min Rain = 0
KMC1 172003Z 34002KT 16/M04 A301 RMK A01 T01621043  RH  024%=      5-min Rain = 0
KMC1 172004Z 01004KT 16/M04 A301 RMK A01 T01621039  RH  025%=      5-min Rain = 0
KMC1 172005Z 01001KT 16/M04 A301 RMK A01 T01631044  RH  024%=      5-min Rain = 0
KMC1 172006Z 13000KT 16/M04 A3009 RMK A01 T01631042  RH  024%=      5-min Rain = 0
KMC1 172007Z 10000KT 17/M04 A3009 RMK A01 T01651042  RH  024%=      5-min Rain = 0
KMC1 172008Z 05002KT 17/M04 A3009 RMK A01 T01671039  RH  024%=      5-min Rain = 0
KMC1 172009Z 06001KT 17/M03 A3009 RMK A01 T01701034  RH  025%=      5-min Rain = 0
KMC1 172010Z 18001KT 17/M04 A3009 RMK A01 T01721040  RH  023%=      5-min Rain = 0
KMC1 172011Z 04001KT 17/M04 A3009 RMK A01 T01721041  RH  023%=      5-min Rain = 0
KMC1 172012Z 05002KT 17/M04 A3009 RMK A01 T01711043  RH  023%=      5-min Rain = 0
KMC1 172013Z 04000KT 17/M05 A3009 RMK A01 T01681046  RH  023%=      5-min Rain = 0
KMC1 172014Z 00002KT 17/M05 A3009 RMK A01 T01671045  RH  023%=      5-min Rain = 0
KMC1 172015Z 35003KT 17/M04 A3009 RMK A01 T01671040  RH  024%=      5-min Rain = 0
KMC1 172016Z 03000KT 17/M04 A3009 RMK A01 T01671043  RH  023%=      5-min Rain = 0
KMC1 172017Z 02002KT 17/M04 A3009 RMK A01 T01671042  RH  024%=      5-min Rain = 0
KMC1 172018Z 02001KT 17/M04 A3009 RMK A01 T01661040  RH  024%=      5-min Rain = 0
KMC1 172019Z 02002KT 17/M04 A3009 RMK A01 T01671042  RH  024%=      5-min Rain = 0
KMC1 172020Z 36000KT 17/M04 A3009 RMK A01 T01661041  RH  024%=      5-min Rain = 0
KMC1 172021Z 02002KT 17/M04 A3009 RMK A01 T01661041  RH  024%=      5-min Rain = 0
KMC1 172022Z 02001KT 17/M04 A3009 RMK A01 T01661042  RH  024%=      5-min Rain = 0
KMC1 172023Z 04001KT 17/M04 A3009 RMK A01 T01671041  RH  024%=      5-min Rain = 0
KMC1 172024Z 02000KT 17/M04 A3008 RMK A01 T01671042  RH  024%=      5-min Rain = 0
KMC1 172025Z 35001KT 17/M04 A3008 RMK A01 T01691039  RH  024%=      5-min Rain = 0
KMC1 172026Z 19001KT 17/M04 A3008 RMK A01 T01711038  RH  024%=      5-min Rain = 0
KMC1 172027Z 18002KT 17/M04 A3008 RMK A01 T01731041  RH  023%=      5-min Rain = 0
KMC1 172028Z 11001KT 17/M04 A3008 RMK A01 T01741040  RH  023%=      5-min Rain = 0
KMC1 172029Z 17004KT 18/M04 A3008 RMK A01 T01761036  RH  023%=      5-min Rain = 0
KMC1 172030Z 16003KT 18/M04 A3008 RMK A01 T01781040  RH  022%=      5-min Rain = 0
KMC1 172031Z 14004KT 18/M04 A3008 RMK A01 T01771044  RH  022%=      5-min Rain = 0
KMC1 172032Z 11003KT 17/M04 A3008 RMK A01 T01741044  RH  022%=      5-min Rain = 0
KMC1 172033Z 11003KT 17/M05 A3008 RMK A01 T01711047  RH  022%=      5-min Rain = 0
KMC1 172034Z 10002KT 17/M05 A3008 RMK A01 T01681047  RH  023%=      5-min Rain = 0
KMC1 172035Z 10001KT 17/M04 A3009 RMK A01 T01681040  RH  024%=      5-min Rain = 0
KMC1 172036Z 33001KT 17/M04 A3009 RMK A01 T01721040  RH  023%=      5-min Rain = 0
KMC1 172037Z 33001KT 17/M04 A3009 RMK A01 T01731043  RH  023%=      5-min Rain = 0
KMC1 172038Z 04001KT 17/M04 A3009 RMK A01 T01721043  RH  023%=      5-min Rain = 0
KMC1 172039Z 18002KT 17/M04 A3009 RMK A01 T01721043  RH  023%=      5-min Rain = 0
KMC1 172040Z 06001KT 17/M05 A3009 RMK A01 T01721045  RH  022%=      5-min Rain = 0
KMC1 172041Z 00001KT 17/M04 A3008 RMK A01 T01711044  RH  023%=      5-min Rain = 0
KMC1 172042Z 26000KT 17/M04 A3008 RMK A01 T01711040  RH  023%=      5-min Rain = 0
KMC1 172043Z 27002KT 17/M04 A3008 RMK A01 T01731041  RH  023%=      5-min Rain = 0
KMC1 172044Z 27002KT 17/M04 A3008 RMK A01 T01731044  RH  022%=      5-min Rain = 0
KMC1 172045Z 31003KT 17/M04 A3008 RMK A01 T01721041  RH  023%=      5-min Rain = 0
KMC1 172046Z 28003KT 17/M04 A3008 RMK A01 T01731037  RH  024%=      5-min Rain = 0
KMC1 172047Z 28004KT 17/M04 A3008 RMK A01 T01741040  RH  023%=      5-min Rain = 0
KMC1 172048Z 29005KT 17/M04 A3008 RMK A01 T01731040  RH  023%=      5-min Rain = 0
KMC1 172049Z 30004KT 17/M04 A3008 RMK A01 T01731038  RH  023%=      5-min Rain = 0
KMC1 172050Z 32002KT 17/M04 A3008 RMK A01 T01731040  RH  023%=      5-min Rain = 0
KMC1 172051Z 34001KT 17/M04 A3008 RMK A01 T01721043  RH  023%=      5-min Rain = 0
KMC1 172052Z 33002KT 17/M04 A3008 RMK A01 T01721039  RH  023%=      5-min Rain = 0
KMC1 172053Z 33002KT 17/M04 A3008 RMK A01 T01721042  RH  023%=      5-min Rain = 0
KMC1 172054Z 32003KT 17/M04 A3008 RMK A01 T01711038  RH  024%=      5-min Rain = 0
KMC1 172055Z 33003KT 17/M04 A3008 RMK A01 T01721037  RH  024%=      5-min Rain = 0
KMC1 172056Z 25003KT 18/M03 A3008 RMK A01 T01751033  RH  024%=      5-min Rain = 0
KMC1 172057Z 26004KT 18/M04 A3008 RMK A01 T01761040  RH  023%=      5-min Rain = 0
KMC1 172058Z 23004KT 18/M04 A3008 RMK A01 T01751041  RH  023%=      5-min Rain = 0
KMC1 172059Z 23002KT 17/M04 A3008 RMK A01 T01731042  RH  023%=      5-min Rain = 0
KMC1 172100Z 03000KT 17/M05 A3008 RMK A01 T01721045  RH  022%=      5-min Rain = 0
KMC1 172101Z 16002KT 17/M04 A3008 RMK A01 T01701042  RH  023%=      5-min Rain = 0
KMC1 172102Z 15003KT 17/M04 A3008 RMK A01 T01721040  RH  023%=      5-min Rain = 0
KMC1 172103Z 10003KT 17/M04 A3008 RMK A01 T01741038  RH  023%=      5-min Rain = 0
KMC1 172104Z 11002KT 18/M04 A3008 RMK A01 T01751041  RH  023%=      5-min Rain = 0
KMC1 172105Z 09002KT 17/M04 A3008 RMK A01 T01741043  RH  022%=      5-min Rain = 0
KMC1 172106Z 08001KT 17/M04 A3008 RMK A01 T01731042  RH  023%=      5-min Rain = 0
KMC1 172107Z 13004KT 17/M04 A3008 RMK A01 T01731040  RH  023%=      5-min Rain = 0
KMC1 172108Z 16003KT 17/M04 A3008 RMK A01 T01731039  RH  023%=      5-min Rain = 0
KMC1 172109Z 15001KT 17/M04 A3008 RMK A01 T01731036  RH  024%=      5-min Rain = 0
KMC1 172110Z 09002KT 18/M04 A3008 RMK A01 T01761036  RH  023%=      5-min Rain = 0
KMC1 172111Z 11003KT 18/M04 A3008 RMK A01 T01761040  RH  023%=      5-min Rain = 0
KMC1 172112Z 11002KT 17/M04 A3008 RMK A01 T01741041  RH  023%=      5-min Rain = 0
KMC1 172113Z 09001KT 17/M04 A3008 RMK A01 T01731042  RH  023%=      5-min Rain = 0
KMC1 172114Z 05001KT 17/M04 A3008 RMK A01 T01721042  RH  023%=      5-min Rain = 0
KMC1 172115Z 00000KT 17/M04 A3008 RMK A01 T01711042  RH  023%=      5-min Rain = 0
KMC1 172116Z 03000KT 17/M04 A3008 RMK A01 T01721040  RH  023%=      5-min Rain = 0
KMC1 172117Z 35001KT 17/M04 A3008 RMK A01 T01731042  RH  023%=      5-min Rain = 0
KMC1 172118Z 00003KT 17/M04 A3008 RMK A01 T01731038  RH  023%=      5-min Rain = 0
KMC1 172119Z 03003KT 17/M04 A3008 RMK A01 T01741036  RH  024%=      5-min Rain = 0
KMC1 172120Z 35003KT 18/M04 A3008 RMK A01 T01751039  RH  023%=      5-min Rain = 0
KMC1 172121Z 34003KT 17/M04 A3008 RMK A01 T01731037  RH  023%=      5-min Rain = 0
KMC1 172122Z 34003KT 17/M04 A3008 RMK A01 T01731036  RH  024%=      5-min Rain = 0
KMC1 172123Z 31003KT 17/M04 A3008 RMK A01 T01731038  RH  023%=      5-min Rain = 0
KMC1 172124Z 31002KT 17/M04 A3008 RMK A01 T01731039  RH  023%=      5-min Rain = 0
KMC1 172125Z 29002KT 17/M04 A3008 RMK A01 T01731040  RH  023%=      5-min Rain = 0
KMC1 172126Z 33001KT 17/M04 A3008 RMK A01 T01741039  RH  023%=      5-min Rain = 0
KMC1 172127Z 35002KT 17/M04 A3008 RMK A01 T01741039  RH  023%=      5-min Rain = 0
KMC1 172128Z 02002KT 18/M04 A3008 RMK A01 T01751035  RH  024%=      5-min Rain = 0
KMC1 172129Z 26002KT 18/M04 A3008 RMK A01 T01761035  RH  024%=      5-min Rain = 0
KMC1 172130Z 27002KT 18/M04 A3008 RMK A01 T01771037  RH  023%=      5-min Rain = 0
KMC1 172131Z 30002KT 18/M04 A3007 RMK A01 T01791036  RH  023%=      5-min Rain = 0
KMC1 172132Z 26003KT 18/M04 A3007 RMK A01 T01801036  RH  023%=      5-min Rain = 0
KMC1 172133Z 27004KT 18/M04 A3007 RMK A01 T01801038  RH  022%=      5-min Rain = 0
KMC1 172134Z 27005KT 18/M04 A3007 RMK A01 T01801036  RH  023%=      5-min Rain = 0
KMC1 172135Z 27005KT 18/M04 A3007 RMK A01 T01801039  RH  022%=      5-min Rain = 0
KMC1 172136Z 27004KT 18/M04 A3007 RMK A01 T01791040  RH  022%=      5-min Rain = 0
KMC1 172137Z 29003KT 18/M04 A3007 RMK A01 T01781042  RH  022%=      5-min Rain = 0
KMC1 172138Z 30004KT 18/M04 A3007 RMK A01 T01771040  RH  023%=      5-min Rain = 0
KMC1 172139Z 30002KT 18/M04 A3007 RMK A01 T01761039  RH  023%=      5-min Rain = 0
KMC1 172140Z 26002KT 18/M04 A3007 RMK A01 T01771038  RH  023%=      5-min Rain = 0
KMC1 172141Z 25002KT 18/M04 A3007 RMK A01 T01771039  RH  023%=      5-min Rain = 0
KMC1 172142Z 23002KT 18/M04 A3007 RMK A01 T01771039  RH  023%=      5-min Rain = 0
KMC1 172143Z 24003KT 18/M04 A3007 RMK A01 T01771036  RH  023%=      5-min Rain = 0
KMC1 172144Z 23002KT 18/M04 A3007 RMK A01 T01781038  RH  023%=      5-min Rain = 0
KMC1 172145Z 26001KT 18/M04 A3007 RMK A01 T01781039  RH  022%=      5-min Rain = 0
KMC1 172146Z 29001KT 18/M04 A3007 RMK A01 T01781040  RH  022%=      5-min Rain = 0
KMC1 172147Z 00000KT 18/M04 A3007 RMK A01 T01781041  RH  022%=      5-min Rain = 0
KMC1 172148Z 16000KT 18/M03 A3007 RMK A01 T01791034  RH  023%=      5-min Rain = 0
KMC1 172149Z 15001KT 18/M04 A3007 RMK A01 T01821040  RH  022%=      5-min Rain = 0
KMC1 172150Z 13001KT 18/M04 A3007 RMK A01 T01831040  RH  022%=      5-min Rain = 0
KMC1 172151Z 07001KT 18/M04 A3007 RMK A01 T01831040  RH  022%=      5-min Rain = 0
KMC1 172152Z 33000KT 18/M04 A3007 RMK A01 T01831038  RH  022%=      5-min Rain = 0
KMC1 172153Z 32001KT 18/M04 A3007 RMK A01 T01821038  RH  022%=      5-min Rain = 0
KMC1 172154Z 24000KT 18/M04 A3007 RMK A01 T01821035  RH  022%=      5-min Rain = 0
KMC1 172155Z 26002KT 18/M04 A3007 RMK A01 T01831040  RH  022%=      5-min Rain = 0
KMC1 172156Z 22005KT 18/M04 A3007 RMK A01 T01831037  RH  022%=      5-min Rain = 0
KMC1 172157Z 23005KT 18/M04 A3007 RMK A01 T01831037  RH  022%=      5-min Rain = 0
KMC1 172158Z 25002KT 18/M04 A3007 RMK A01 T01821039  RH  022%=      5-min Rain = 0
KMC1 172159Z 21001KT 18/M04 A3007 RMK A01 T01811040  RH  022%=      5-min Rain = 0
KMC1 172200Z 23003KT 18/M04 A3007 RMK A01 T01821037  RH  022%=      5-min Rain = 0
KMC1 172201Z 25001KT 18/M04 A3007 RMK A01 T01831040  RH  022%=      5-min Rain = 0
KMC1 172202Z 24003KT 18/M04 A3007 RMK A01 T01821037  RH  022%=      5-min Rain = 0
KMC1 172203Z 22004KT 18/M04 A3007 RMK A01 T01831036  RH  022%=      5-min Rain = 0
KMC1 172204Z 25005KT 18/M04 A3007 RMK A01 T01831037  RH  022%=      5-min Rain = 0
KMC1 172205Z 23004KT 18/M04 A3007 RMK A01 T01821037  RH  022%=      5-min Rain = 0
KMC1 172206Z 24004KT 18/M04 A3007 RMK A01 T01811037  RH  022%=      5-min Rain = 0
KMC1 172207Z 25005KT 18/M04 A3007 RMK A01 T01801039  RH  022%=      5-min Rain = 0
KMC1 172208Z 23005KT 18/M04 A3007 RMK A01 T01791037  RH  023%=      5-min Rain = 0
KMC1 172209Z 24006KT 18/M04 A3007 RMK A01 T01791037  RH  023%=      5-min Rain = 0
KMC1 172210Z 24004KT 18/M04 A3007 RMK A01 T01801036  RH  023%=      5-min Rain = 0
KMC1 172211Z 27003KT 18/M04 A3007 RMK A01 T01801038  RH  022%=      5-min Rain = 0
KMC1 172212Z 26003KT 18/M04 A3007 RMK A01 T01801037  RH  023%=      5-min Rain = 0
KMC1 172213Z 24005KT 18/M04 A3007 RMK A01 T01811035  RH  023%=      5-min Rain = 0
KMC1 172214Z 23002KT 18/M04 A3007 RMK A01 T01811039  RH  022%=      5-min Rain = 0
KMC1 172215Z 28004KT 18/M04 A3007 RMK A01 T01801039  RH  022%=      5-min Rain = 0
KMC1 172216Z 27004KT 18/M04 A3007 RMK A01 T01801038  RH  022%=      5-min Rain = 0
KMC1 172217Z 23003KT 18/M04 A3007 RMK A01 T01791036  RH  023%=      5-min Rain = 0
KMC1 172218Z 23002KT 18/M04 A3007 RMK A01 T01801037  RH  023%=      5-min Rain = 0
KMC1 172219Z 30003KT 18/M04 A3007 RMK A01 T01801036  RH  023%=      5-min Rain = 0
KMC1 172220Z 30004KT 18/M04 A3007 RMK A01 T01801038  RH  022%=      5-min Rain = 0
KMC1 172221Z 29005KT 18/M04 A3007 RMK A01 T01801036  RH  023%=      5-min Rain = 0
KMC1 172222Z 27003KT 18/M04 A3007 RMK A01 T01801038  RH  022%=      5-min Rain = 0
KMC1 172223Z 29001KT 18/M04 A3007 RMK A01 T01791038  RH  022%=      5-min Rain = 0
KMC1 172224Z 34001KT 18/M04 A3007 RMK A01 T01791038  RH  022%=      5-min Rain = 0
KMC1 172225Z 32001KT 18/M04 A3007 RMK A01 T01791040  RH  022%=      5-min Rain = 0
KMC1 172226Z 31001KT 18/M04 A3007 RMK A01 T01791036  RH  023%=      5-min Rain = 0
KMC1 172227Z 28001KT 18/M04 A3007 RMK A01 T01791037  RH  023%=      5-min Rain = 0
KMC1 172228Z 25000KT 18/M04 A3007 RMK A01 T01801039  RH  022%=      5-min Rain = 0
KMC1 172229Z 27002KT 18/M04 A3007 RMK A01 T01801037  RH  023%=      5-min Rain = 0
KMC1 172230Z 24004KT 18/M04 A3007 RMK A01 T01811036  RH  023%=      5-min Rain = 0
KMC1 172231Z 24005KT 18/M04 A3007 RMK A01 T01811037  RH  022%=      5-min Rain = 0
KMC1 172232Z 26006KT 18/M04 A3007 RMK A01 T01811038  RH  022%=      5-min Rain = 0
KMC1 172233Z 25005KT 18/M04 A3007 RMK A01 T01801039  RH  022%=      5-min Rain = 0
KMC1 172234Z 24003KT 18/M04 A3007 RMK A01 T01791035  RH  023%=      5-min Rain = 0
KMC1 172235Z 29005KT 18/M04 A3007 RMK A01 T01801036  RH  023%=      5-min Rain = 0
KMC1 172236Z 28005KT 18/M04 A3007 RMK A01 T01801038  RH  022%=      5-min Rain = 0
KMC1 172237Z 27004KT 18/M04 A3007 RMK A01 T01791038  RH  023%=      5-min Rain = 0
KMC1 172238Z 28004KT 18/M04 A3007 RMK A01 T01791038  RH  023%=      5-min Rain = 0
KMC1 172239Z 29003KT 18/M04 A3007 RMK A01 T01781038  RH  023%=      5-min Rain = 0
KMC1 172240Z 28003KT 18/M04 A3007 RMK A01 T01781037  RH  023%=      5-min Rain = 0
KMC1 172241Z 27003KT 18/M04 A3007 RMK A01 T01781037  RH  023%=      5-min Rain = 0
KMC1 172242Z 28003KT 18/M04 A3007 RMK A01 T01791035  RH  023%=      5-min Rain = 0
KMC1 172243Z 24002KT 18/M04 A3007 RMK A01 T01791037  RH  023%=      5-min Rain = 0
KMC1 172244Z 25003KT 18/M04 A3007 RMK A01 T01801038  RH  022%=      5-min Rain = 0
KMC1 172245Z 29004KT 18/M04 A3007 RMK A01 T01791038  RH  022%=      5-min Rain = 0
KMC1 172246Z 30005KT 18/M04 A3007 RMK A01 T01791037  RH  023%=      5-min Rain = 0
KMC1 172247Z 31003KT 18/M04 A3007 RMK A01 T01781037  RH  023%=      5-min Rain = 0
KMC1 172248Z 33002KT 18/M04 A3007 RMK A01 T01781037  RH  023%=      5-min Rain = 0
KMC1 172249Z 31001KT 18/M04 A3007 RMK A01 T01771037  RH  023%=      5-min Rain = 0
KMC1 172250Z 29002KT 18/M03 A3007 RMK A01 T01771034  RH  024%=      5-min Rain = 0
KMC1 172251Z 26002KT 18/M04 A3007 RMK A01 T01781035  RH  023%=      5-min Rain = 0
KMC1 172252Z 26003KT 18/M03 A3007 RMK A01 T01791034  RH  023%=      5-min Rain = 0
KMC1 172253Z 26005KT 18/M03 A3007 RMK A01 T01801034  RH  023%=      5-min Rain = 0
KMC1 172254Z 26004KT 18/M04 A3007 RMK A01 T01801036  RH  023%=      5-min Rain = 0
KMC1 172255Z 27005KT 18/M04 A3007 RMK A01 T01781037  RH  023%=      5-min Rain = 0
KMC1 172256Z 27004KT 18/M04 A3007 RMK A01 T01771037  RH  023%=      5-min Rain = 0
KMC1 172257Z 25003KT 18/M04 A3007 RMK A01 T01771035  RH  023%=      5-min Rain = 0
KMC1 172258Z 24003KT 18/M04 A3007 RMK A01 T01771035  RH  023%=      5-min Rain = 0
KMC1 172259Z 26003KT 18/M03 A3007 RMK A01 T01771034  RH  023%=      5-min Rain = 0
KMC1 172300Z 26003KT 18/M03 A3007 RMK A01 T01771033  RH  024%=      5-min Rain = 0
KMC1 172301Z 26003KT 18/M03 A3007 RMK A01 T01771030  RH  024%=      5-min Rain = 0
KMC1 172302Z 28004KT 18/M03 A3007 RMK A01 T01771034  RH  023%=      5-min Rain = 0
KMC1 172303Z 27004KT 18/M04 A3007 RMK A01 T01771036  RH  023%=      5-min Rain = 0
KMC1 172304Z 26003KT 18/M04 A3007 RMK A01 T01761037  RH  023%=      5-min Rain = 0
KMC1 172305Z 27003KT 18/M04 A3007 RMK A01 T01751036  RH  023%=      5-min Rain = 0
KMC1 172306Z 26003KT 17/M04 A3007 RMK A01 T01741035  RH  024%=      5-min Rain = 0
KMC1 172307Z 27003KT 17/M04 A3007 RMK A01 T01741036  RH  024%=      5-min Rain = 0
KMC1 172308Z 27003KT 17/M04 A3007 RMK A01 T01741035  RH  024%=      5-min Rain = 0
KMC1 172309Z 27003KT 17/M03 A3007 RMK A01 T01741034  RH  024%=      5-min Rain = 0
KMC1 172310Z 27003KT 17/M03 A3007 RMK A01 T01741034  RH  024%=      5-min Rain = 0
KMC1 172311Z 25003KT 17/M03 A3007 RMK A01 T01741034  RH  024%=      5-min Rain = 0
KMC1 172312Z 25002KT 17/M03 A3007 RMK A01 T01741034  RH  024%=      5-min Rain = 0
KMC1 172313Z 25002KT 17/M03 A3007 RMK A01 T01741033  RH  024%=      5-min Rain = 0
KMC1 172314Z 26002KT 17/M03 A3007 RMK A01 T01741033  RH  024%=      5-min Rain = 0
KMC1 172315Z 26002KT 18/M03 A3007 RMK A01 T01751032  RH  024%=      5-min Rain = 0
KMC1 172316Z 26003KT 18/M03 A3007 RMK A01 T01751034  RH  024%=      5-min Rain = 0
KMC1 172317Z 27002KT 18/M03 A3007 RMK A01 T01751033  RH  024%=      5-min Rain = 0
KMC1 172318Z 28002KT 18/M03 A3007 RMK A01 T01761033  RH  024%=      5-min Rain = 0
KMC1 172319Z 26002KT 18/M04 A3007 RMK A01 T01751035  RH  024%=      5-min Rain = 0
KMC1 172320Z 26001KT 17/M04 A3007 RMK A01 T01741035  RH  024%=      5-min Rain = 0
KMC1 172321Z 26001KT 17/M03 A3007 RMK A01 T01741030  RH  025%=      5-min Rain = 0
KMC1 172322Z 25002KT 18/M03 A3007 RMK A01 T01751032  RH  024%=      5-min Rain = 0
KMC1 172323Z 24001KT 18/M04 A3008 RMK A01 T01761036  RH  023%=      5-min Rain = 0
KMC1 172324Z 23001KT 18/M03 A3008 RMK A01 T01761034  RH  024%=      5-min Rain = 0
KMC1 172325Z 24000KT 18/M03 A3008 RMK A01 T01761034  RH  024%=      5-min Rain = 0
KMC1 172326Z 26001KT 18/M03 A3008 RMK A01 T01761032  RH  024%=      5-min Rain = 0
KMC1 172327Z 28000KT 18/M03 A3008 RMK A01 T01761032  RH  024%=      5-min Rain = 0
KMC1 172328Z 25000KT 18/M03 A3008 RMK A01 T01761033  RH  024%=      5-min Rain = 0
KMC1 172329Z 25001KT 18/M03 A3008 RMK A01 T01761032  RH  024%=      5-min Rain = 0
KMC1 172330Z 26001KT 18/M03 A3008 RMK A01 T01751034  RH  024%=      5-min Rain = 0
KMC1 172331Z 26001KT 17/M03 A3008 RMK A01 T01741034  RH  024%=      5-min Rain = 0
KMC1 172332Z 24000KT 17/M04 A3008 RMK A01 T01731035  RH  024%=      5-min Rain = 0
KMC1 172333Z 25001KT 17/M03 A3008 RMK A01 T01731033  RH  024%=      5-min Rain = 0
KMC1 172334Z 24002KT 17/M03 A3008 RMK A01 T01731033  RH  024%=      5-min Rain = 0
KMC1 172335Z 24002KT 17/M03 A3008 RMK A01 T01721032  RH  025%=      5-min Rain = 0
KMC1 172336Z 24002KT 17/M03 A3008 RMK A01 T01711032  RH  025%=      5-min Rain = 0
KMC1 172337Z 22002KT 17/M03 A3008 RMK A01 T01701033  RH  025%=      5-min Rain = 0
KMC1 172338Z 23003KT 17/M03 A3008 RMK A01 T01691033  RH  025%=      5-min Rain = 0
KMC1 172339Z 22003KT 17/M03 A3008 RMK A01 T01681033  RH  025%=      5-min Rain = 0
KMC1 172340Z 23003KT 17/M03 A3008 RMK A01 T01661032  RH  026%=      5-min Rain = 0
KMC1 172341Z 24003KT 16/M03 A3008 RMK A01 T01641032  RH  026%=      5-min Rain = 0
KMC1 172342Z 23003KT 16/M03 A3008 RMK A01 T01631032  RH  026%=      5-min Rain = 0
KMC1 172343Z 23003KT 16/M03 A3008 RMK A01 T01621031  RH  026%=      5-min Rain = 0
KMC1 172344Z 24003KT 16/M03 A3008 RMK A01 T01611031  RH  027%=      5-min Rain = 0
KMC1 172345Z 23003KT 16/M03 A3008 RMK A01 T01601030  RH  027%=      5-min Rain = 0
KMC1 172346Z 24003KT 16/M03 A3008 RMK A01 T01591030  RH  027%=      5-min Rain = 0
KMC1 172347Z 24002KT 16/M03 A3008 RMK A01 T01581030  RH  027%=      5-min Rain = 0
KMC1 172348Z 24002KT 16/M03 A3008 RMK A01 T01571030  RH  027%=      5-min Rain = 0
KMC1 172349Z 24002KT 16/M03 A3008 RMK A01 T01571029  RH  028%=      5-min Rain = 0
KMC1 172350Z 24002KT 16/M03 A3008 RMK A01 T01561030  RH  028%=      5-min Rain = 0
KMC1 172351Z 24002KT 16/M03 A3008 RMK A01 T01561030  RH  028%=      5-min Rain = 0
KMC1 172352Z 23002KT 16/M03 A3008 RMK A01 T01551030  RH  028%=      5-min Rain = 0
KMC1 172353Z 23002KT 15/M03 A3008 RMK A01 T01541028  RH  028%=      5-min Rain = 0
KMC1 172354Z 24002KT 15/M03 A3008 RMK A01 T01531029  RH  028%=      5-min Rain = 0
KMC1 172355Z 24002KT 15/M03 A3008 RMK A01 T01511029  RH  029%=      5-min Rain = 0
KMC1 172356Z 24003KT 15/M03 A3008 RMK A01 T01511029  RH  029%=      5-min Rain = 0
KMC1 172357Z 24003KT 15/M03 A3008 RMK A01 T01491030  RH  029%=      5-min Rain = 0
KMC1 172358Z 24002KT 15/M03 A3008 RMK A01 T01481031  RH  029%=      5-min Rain = 0
KMC1 172359Z 24002KT 15/M03 A3008 RMK A01 T01471032  RH  029%=      5-min Rain = 0
KMC1 180000Z 24002KT 15/M03 A3008 RMK A01 T01461032  RH  029%=      5-min Rain = 0
KMC1 180001Z 24002KT 15/M03 A3008 RMK A01 T01461031  RH  029%=      5-min Rain = 0
KMC1 180002Z 24002KT 14/M03 A3008 RMK A01 T01441032  RH  029%=      5-min Rain = 0
KMC1 180003Z 24002KT 14/M03 A3008 RMK A01 T01441032  RH  030%=      5-min Rain = 0
KMC1 180004Z 24002KT 14/M03 A3008 RMK A01 T01431032  RH  030%=      5-min Rain = 0
KMC1 180005Z 24002KT 14/M03 A3008 RMK A01 T01421032  RH  030%=      5-min Rain = 0
KMC1 180006Z 25002KT 14/M03 A3008 RMK A01 T01421033  RH  030%=      5-min Rain = 0
KMC1 180007Z 25002KT 14/M03 A3008 RMK A01 T01411033  RH  030%=      5-min Rain = 0
KMC1 180008Z 25001KT 14/M03 A3008 RMK A01 T01401033  RH  030%=      5-min Rain = 0
KMC1 180009Z 25001KT 14/M03 A3008 RMK A01 T01401033  RH  030%=      5-min Rain = 0
KMC1 180010Z 25001KT 14/M03 A3008 RMK A01 T01391033  RH  030%=      5-min Rain = 0
KMC1 180011Z 25001KT 14/M03 A3008 RMK A01 T01391033  RH  030%=      5-min Rain = 0
KMC1 180012Z 25001KT 14/M03 A3008 RMK A01 T01391033  RH  030%=      5-min Rain = 0
KMC1 180013Z 25001KT 14/M03 A3008 RMK A01 T01381033  RH  030%=      5-min Rain = 0
KMC1 180014Z 25001KT 14/M03 A3008 RMK A01 T01381033  RH  030%=      5-min Rain = 0
KMC1 180015Z 25001KT 14/M03 A3008 RMK A01 T01371034  RH  030%=      5-min Rain = 0
KMC1 180016Z 25001KT 14/M03 A3008 RMK A01 T01371034  RH  031%=      5-min Rain = 0
KMC1 180017Z 25001KT 14/M03 A3008 RMK A01 T01361034  RH  030%=      5-min Rain = 0
KMC1 180018Z 23001KT 14/M03 A3008 RMK A01 T01361034  RH  030%=      5-min Rain = 0
KMC1 180019Z 23001KT 14/M03 A3008 RMK A01 T01361034  RH  030%=      5-min Rain = 0
KMC1 180020Z 23001KT 14/M04 A3008 RMK A01 T01361035  RH  030%=      5-min Rain = 0
KMC1 180021Z 23000KT 14/M04 A3008 RMK A01 T01361035  RH  030%=      5-min Rain = 0
KMC1 180022Z 00000KT 14/M04 A3008 RMK A01 T01371035  RH  030%=      5-min Rain = 0
KMC1 180023Z 23000KT 14/M04 A3008 RMK A01 T01371036  RH  030%=      5-min Rain = 0
KMC1 180024Z 23001KT 14/M04 A3008 RMK A01 T01371036  RH  030%=      5-min Rain = 0
KMC1 180025Z 23001KT 14/M04 A3008 RMK A01 T01371036  RH  030%=      5-min Rain = 0
KMC1 180026Z 23001KT 14/M04 A3008 RMK A01 T01371036  RH  030%=      5-min Rain = 0
KMC1 180027Z 23001KT 14/M04 A3008 RMK A01 T01371036  RH  030%=      5-min Rain = 0
KMC1 180028Z 23000KT 14/M04 A3008 RMK A01 T01381036  RH  030%=      5-min Rain = 0
KMC1 180029Z 23001KT 14/M04 A3008 RMK A01 T01381035  RH  030%=      5-min Rain = 0
KMC1 180030Z 23001KT 14/M04 A3008 RMK A01 T01371035  RH  030%=      5-min Rain = 0
KMC1 180031Z 23001KT 14/M04 A3008 RMK A01 T01371035  RH  030%=      5-min Rain = 0
KMC1 180032Z 21001KT 14/M04 A3008 RMK A01 T01371036  RH  030%=      5-min Rain = 0
KMC1 180033Z 22001KT 14/M04 A3008 RMK A01 T01371035  RH  030%=      5-min Rain = 0
KMC1 180034Z 22001KT 14/M04 A3008 RMK A01 T01371036  RH  030%=      5-min Rain = 0
KMC1 180035Z 23001KT 14/M04 A3008 RMK A01 T01361036  RH  030%=      5-min Rain = 0
KMC1 180036Z 23000KT 14/M04 A3008 RMK A01 T01351036  RH  030%=      5-min Rain = 0
KMC1 180037Z 23000KT 13/M04 A3008 RMK A01 T01341036  RH  030%=      5-min Rain = 0
KMC1 180038Z 00000KT 13/M04 A3008 RMK A01 T01341036  RH  030%=      5-min Rain = 0
KMC1 180039Z 00000KT 13/M04 A3008 RMK A01 T01331036  RH  031%=      5-min Rain = 0
KMC1 180040Z 00000KT 13/M04 A3008 RMK A01 T01331037  RH  030%=      5-min Rain = 0
KMC1 180041Z 00000KT 13/M04 A3008 RMK A01 T01331038  RH  030%=      5-min Rain = 0
KMC1 180042Z 00000KT 13/M04 A3008 RMK A01 T01331037  RH  030%=      5-min Rain = 0
KMC1 180043Z 00000KT 13/M04 A3008 RMK A01 T01331037  RH  030%=      5-min Rain = 0
KMC1 180044Z 00000KT 13/M04 A3008 RMK A01 T01331036  RH  031%=      5-min Rain = 0
KMC1 180045Z 00000KT 13/M04 A3008 RMK A01 T01311036  RH  031%=      5-min Rain = 0
KMC1 180046Z 00000KT 13/M04 A3008 RMK A01 T01301035  RH  032%=      5-min Rain = 0
KMC1 180047Z 00000KT 13/M04 A3008 RMK A01 T01261035  RH  032%=      5-min Rain = 0
KMC1 180048Z 00000KT 12/M04 A3008 RMK A01 T01221035  RH  033%=      5-min Rain = 0
KMC1 180049Z 23001KT 12/M04 A3008 RMK A01 T01201035  RH  034%=      5-min Rain = 0
KMC1 180050Z 25001KT 12/M03 A3008 RMK A01 T01201034  RH  034%=      5-min Rain = 0
KMC1 180051Z 04002KT 12/M04 A3008 RMK A01 T01201035  RH  034%=      5-min Rain = 0
KMC1 180052Z 04003KT 12/M04 A3008 RMK A01 T01211035  RH  034%=      5-min Rain = 0
KMC1 180053Z 05004KT 12/M04 A3009 RMK A01 T01211035  RH  034%=      5-min Rain = 0
KMC1 180054Z 05007KT 12/M03 A3009 RMK A01 T01211034  RH  034%=      5-min Rain = 0
KMC1 180055Z 06005KT 12/M03 A3009 RMK A01 T01171030  RH  036%=      5-min Rain = 0
KMC1 180056Z 06005KT 11/M03 A3009 RMK A01 T01111029  RH  037%=      5-min Rain = 0
KMC1 180057Z 06004KT 11/M03 A3009 RMK A01 T01061028  RH  039%=      5-min Rain = 0
KMC1 180058Z 05004KT 10/M03 A3009 RMK A01 T01031027  RH  040%=      5-min Rain = 0
KMC1 180059Z 07004KT 10/M03 A3009 RMK A01 T01011027  RH  040%=      5-min Rain = 0
KMC1 180100Z 08004KT 10/M03 A3009 RMK A01 T01001026  RH  041%=      5-min Rain = 0
KMC1 180101Z 08005KT 10/M03 A3009 RMK A01 T00971026  RH  042%=      5-min Rain = 0
KMC1 180102Z 07004KT 09/M03 A3009 RMK A01 T00941026  RH  043%=      5-min Rain = 0
KMC1 180103Z 07004KT 09/M03 A3009 RMK A01 T00911025  RH  044%=      5-min Rain = 0
KMC1 180104Z 06004KT 09/M03 A3009 RMK A01 T00881025  RH  045%=      5-min Rain = 0
KMC1 180105Z 07003KT 09/M03 A3009 RMK A01 T00871026  RH  045%=      5-min Rain = 0
KMC1 180106Z 07004KT 09/M03 A3009 RMK A01 T00861026  RH  045%=      5-min Rain = 0
KMC1 180107Z 08005KT 09/M03 A3009 RMK A01 T00861026  RH  045%=      5-min Rain = 0
KMC1 180108Z 08005KT 09/M03 A3009 RMK A01 T00861026  RH  045%=      5-min Rain = 0
KMC1 180109Z 08005KT 09/M03 A3009 RMK A01 T00871027  RH  045%=      5-min Rain = 0
KMC1 180110Z 07004KT 09/M03 A3009 RMK A01 T00871027  RH  045%=      5-min Rain = 0
KMC1 180111Z 07004KT 09/M03 A3009 RMK A01 T00871028  RH  044%=      5-min Rain = 0
KMC1 180112Z 07004KT 09/M03 A3009 RMK A01 T00881028  RH  044%=      5-min Rain = 0
KMC1 180113Z 07004KT 09/M03 A3009 RMK A01 T00891028  RH  044%=      5-min Rain = 0
KMC1 180114Z 06003KT 09/M03 A3009 RMK A01 T00891029  RH  043%=      5-min Rain = 0
KMC1 180115Z 07003KT 09/M03 A3009 RMK A01 T00901029  RH  043%=      5-min Rain = 0
KMC1 180116Z 07003KT 09/M03 A3009 RMK A01 T00911029  RH  043%=      5-min Rain = 0
KMC1 180117Z 07003KT 09/M03 A3009 RMK A01 T00911030  RH  043%=      5-min Rain = 0
KMC1 180118Z 07003KT 09/M03 A3009 RMK A01 T00921029  RH  043%=      5-min Rain = 0
KMC1 180119Z 08004KT 09/M03 A3009 RMK A01 T00911030  RH  042%=      5-min Rain = 0
KMC1 180120Z 08004KT 09/M03 A3009 RMK A01 T00921030  RH  042%=      5-min Rain = 0
KMC1 180121Z 08003KT 09/M03 A3009 RMK A01 T00921030  RH  042%=      5-min Rain = 0
KMC1 180122Z 08003KT 09/M03 A3009 RMK A01 T00931030  RH  042%=      5-min Rain = 0
KMC1 180123Z 08003KT 09/M03 A3009 RMK A01 T00921030  RH  042%=      5-min Rain = 0
KMC1 180124Z 08003KT 09/M03 A3009 RMK A01 T00921030  RH  042%=      5-min Rain = 0
KMC1 180125Z 07003KT 09/M03 A3009 RMK A01 T00921030  RH  042%=      5-min Rain = 0
KMC1 180126Z 08003KT 09/M03 A3009 RMK A01 T00921030  RH  042%=      5-min Rain = 0
KMC1 180127Z 08003KT 09/M03 A3009 RMK A01 T00911031  RH  042%=      5-min Rain = 0
KMC1 180128Z 08003KT 09/M03 A3009 RMK A01 T00911031  RH  042%=      5-min Rain = 0
KMC1 180129Z 08003KT 09/M03 A3009 RMK A01 T00911031  RH  042%=      5-min Rain = 0
KMC1 180130Z 08003KT 09/M03 A3009 RMK A01 T00911031  RH  042%=      5-min Rain = 0
KMC1 180131Z 07003KT 09/M03 A3009 RMK A01 T00911031  RH  042%=      5-min Rain = 0
KMC1 180132Z 07003KT 09/M03 A3009 RMK A01 T00901032  RH  042%=      5-min Rain = 0
KMC1 180133Z 06003KT 09/M03 A3009 RMK A01 T00911031  RH  042%=      5-min Rain = 0
KMC1 180134Z 06003KT 09/M03 A3009 RMK A01 T00901031  RH  042%=      5-min Rain = 0
KMC1 180135Z 06003KT 09/M03 A3009 RMK A01 T00891031  RH  043%=      5-min Rain = 0
KMC1 180136Z 07003KT 09/M03 A3009 RMK A01 T00881031  RH  043%=      5-min Rain = 0
KMC1 180137Z 07003KT 09/M03 A3009 RMK A01 T00871031  RH  043%=      5-min Rain = 0
KMC1 180138Z 07003KT 09/M03 A3009 RMK A01 T00871031  RH  043%=      5-min Rain = 0
KMC1 180139Z 08004KT 09/M03 A3009 RMK A01 T00871031  RH  043%=      5-min Rain = 0
KMC1 180140Z 08004KT 09/M03 A3009 RMK A01 T00861031  RH  043%=      5-min Rain = 0
KMC1 180141Z 08005KT 09/M03 A3009 RMK A01 T00861031  RH  044%=      5-min Rain = 0
KMC1 180142Z 08005KT 09/M03 A3009 RMK A01 T00851031  RH  044%=      5-min Rain = 0
KMC1 180143Z 08005KT 09/M03 A3009 RMK A01 T00851031  RH  044%=      5-min Rain = 0
KMC1 180144Z 08005KT 08/M03 A3009 RMK A01 T00841031  RH  044%=      5-min Rain = 0
KMC1 180145Z 08005KT 08/M03 A3009 RMK A01 T00831031  RH  044%=      5-min Rain = 0
KMC1 180146Z 08005KT 08/M03 A3009 RMK A01 T00831031  RH  044%=      5-min Rain = 0
KMC1 180147Z 08006KT 08/M03 A3009 RMK A01 T00821031  RH  045%=      5-min Rain = 0
KMC1 180148Z 08006KT 08/M03 A3009 RMK A01 T00821032  RH  045%=      5-min Rain = 0
KMC1 180149Z 08005KT 08/M03 A3009 RMK A01 T00811031  RH  045%=      5-min Rain = 0
KMC1 180150Z 08005KT 08/M03 A3009 RMK A01 T00801031  RH  045%=      5-min Rain = 0
KMC1 180151Z 08004KT 08/M03 A3009 RMK A01 T00791030  RH  046%=      5-min Rain = 0
KMC1 180152Z 07004KT 08/M03 A3009 RMK A01 T00781031  RH  046%=      5-min Rain = 0
KMC1 180153Z 07004KT 08/M03 A3009 RMK A01 T00771032  RH  046%=      5-min Rain = 0
KMC1 180154Z 07004KT 08/M03 A3009 RMK A01 T00761032  RH  046%=      5-min Rain = 0
KMC1 180155Z 07003KT 08/M03 A3009 RMK A01 T00761032  RH  046%=      5-min Rain = 0
KMC1 180156Z 07004KT 08/M03 A3009 RMK A01 T00751032  RH  047%=      5-min Rain = 0
KMC1 180157Z 08004KT 07/M03 A3009 RMK A01 T00741032  RH  047%=      5-min Rain = 0
KMC1 180158Z 08004KT 07/M03 A3009 RMK A01 T00741032  RH  047%=      5-min Rain = 0
KMC1 180159Z 08003KT 07/M03 A3009 RMK A01 T00741032  RH  047%=      5-min Rain = 0
KMC1 180200Z 09003KT 07/M03 A3009 RMK A01 T00741032  RH  047%=      5-min Rain = 0
KMC1 180201Z 09003KT 07/M03 A3009 RMK A01 T00741032  RH  047%=      5-min Rain = 0
KMC1 180202Z 10003KT 08/M03 A3009 RMK A01 T00751033  RH  047%=      5-min Rain = 0
KMC1 180203Z 10004KT 08/M03 A3009 RMK A01 T00761032  RH  046%=      5-min Rain = 0
KMC1 180204Z 10004KT 08/M03 A3009 RMK A01 T00761033  RH  046%=      5-min Rain = 0
KMC1 180205Z 09004KT 08/M03 A3009 RMK A01 T00761033  RH  046%=      5-min Rain = 0
KMC1 180206Z 09004KT 08/M03 A3009 RMK A01 T00761033  RH  046%=      5-min Rain = 0
KMC1 180207Z 09004KT 08/M03 A3009 RMK A01 T00761032  RH  046%=      5-min Rain = 0
KMC1 180208Z 09004KT 08/M03 A3009 RMK A01 T00751032  RH  046%=      5-min Rain = 0
KMC1 180209Z 09004KT 08/M03 A3009 RMK A01 T00751032  RH  046%=      5-min Rain = 0
KMC1 180210Z 09004KT 08/M03 A3009 RMK A01 T00751032  RH  046%=      5-min Rain = 0
KMC1 180211Z 09004KT 08/M03 A3009 RMK A01 T00751032  RH  046%=      5-min Rain = 0
KMC1 180212Z 09004KT 08/M03 A3009 RMK A01 T00751033  RH  046%=      5-min Rain = 0
KMC1 180213Z 09004KT 08/M03 A3009 RMK A01 T00751033  RH  047%=      5-min Rain = 0
KMC1 180214Z 08004KT 07/M03 A3009 RMK A01 T00741033  RH  047%=      5-min Rain = 0
KMC1 180215Z 08004KT 07/M03 A3009 RMK A01 T00741033  RH  047%=      5-min Rain = 0
KMC1 180216Z 08005KT 07/M03 A3009 RMK A01 T00741033  RH  047%=      5-min Rain = 0
KMC1 180217Z 08005KT 07/M03 A3009 RMK A01 T00731033  RH  047%=      5-min Rain = 0
KMC1 180218Z 07004KT 07/M03 A3009 RMK A01 T00731034  RH  047%=      5-min Rain = 0
KMC1 180219Z 07003KT 07/M03 A301 RMK A01 T00721033  RH  047%=      5-min Rain = 0
KMC1 180220Z 07003KT 07/M03 A301 RMK A01 T00721034  RH  047%=      5-min Rain = 0
KMC1 180221Z 07003KT 07/M03 A301 RMK A01 T00721034  RH  047%=      5-min Rain = 0
KMC1 180222Z 07003KT 07/M03 A301 RMK A01 T00711034  RH  047%=      5-min Rain = 0
KMC1 180223Z 07003KT 07/M03 A301 RMK A01 T00711034  RH  047%=      5-min Rain = 0
KMC1 180224Z 07003KT 07/M03 A301 RMK A01 T00711034  RH  047%=      5-min Rain = 0
KMC1 180225Z 07003KT 07/M03 A301 RMK A01 T00711034  RH  047%=      5-min Rain = 0
KMC1 180226Z 07003KT 07/M03 A301 RMK A01 T00711034  RH  047%=      5-min Rain = 0
KMC1 180227Z 07003KT 07/M03 A301 RMK A01 T00711034  RH  047%=      5-min Rain = 0
KMC1 180228Z 07002KT 07/M03 A301 RMK A01 T00711034  RH  047%=      5-min Rain = 0
KMC1 180229Z 07003KT 07/M03 A301 RMK A01 T00711034  RH  047%=      5-min Rain = 0
KMC1 180230Z 07003KT 07/M03 A301 RMK A01 T00711034  RH  047%=      5-min Rain = 0
KMC1 180231Z 07003KT 07/M03 A301 RMK A01 T00711034  RH  047%=      5-min Rain = 0
KMC1 180232Z 07004KT 07/M03 A301 RMK A01 T00701034  RH  047%=      5-min Rain = 0
KMC1 180233Z 07004KT 07/M03 A301 RMK A01 T00701034  RH  047%=      5-min Rain = 0
KMC1 180234Z 07003KT 07/M03 A301 RMK A01 T00701034  RH  048%=      5-min Rain = 0
KMC1 180235Z 08004KT 07/M03 A301 RMK A01 T00691034  RH  048%=      5-min Rain = 0
KMC1 180236Z 07003KT 07/M03 A301 RMK A01 T00681034  RH  048%=      5-min Rain = 0
KMC1 180237Z 07003KT 07/M04 A301 RMK A01 T00671035  RH  048%=      5-min Rain = 0
KMC1 180238Z 07002KT 07/M04 A301 RMK A01 T00661035  RH  048%=      5-min Rain = 0
KMC1 180239Z 07003KT 07/M04 A301 RMK A01 T00661035  RH  049%=      5-min Rain = 0
KMC1 180240Z 07002KT 07/M04 A301 RMK A01 T00651035  RH  049%=      5-min Rain = 0
KMC1 180241Z 07002KT 06/M04 A301 RMK A01 T00641036  RH  049%=      5-min Rain = 0
KMC1 180242Z 07002KT 06/M04 A301 RMK A01 T00641036  RH  049%=      5-min Rain = 0
KMC1 180243Z 07002KT 06/M04 A301 RMK A01 T00631035  RH  049%=      5-min Rain = 0
KMC1 180244Z 06002KT 06/M04 A301 RMK A01 T00631035  RH  050%=      5-min Rain = 0
KMC1 180245Z 06001KT 06/M04 A301 RMK A01 T00631035  RH  049%=      5-min Rain = 0
KMC1 180246Z 06002KT 06/M04 A301 RMK A01 T00641035  RH  049%=      5-min Rain = 0
KMC1 180247Z 06002KT 07/M03 A301 RMK A01 T00651034  RH  049%=      5-min Rain = 0
KMC1 180248Z 06002KT 07/M03 A301 RMK A01 T00661034  RH  049%=      5-min Rain = 0
KMC1 180249Z 06002KT 07/M03 A301 RMK A01 T00661034  RH  049%=      5-min Rain = 0
KMC1 180250Z 06002KT 07/M04 A301 RMK A01 T00671035  RH  048%=      5-min Rain = 0
KMC1 180251Z 06002KT 07/M04 A301 RMK A01 T00671035  RH  048%=      5-min Rain = 0
KMC1 180252Z 06002KT 07/M04 A301 RMK A01 T00661036  RH  048%=      5-min Rain = 0
KMC1 180253Z 06002KT 07/M04 A301 RMK A01 T00661036  RH  048%=      5-min Rain = 0
KMC1 180254Z 05002KT 07/M04 A301 RMK A01 T00651036  RH  048%=      5-min Rain = 0
KMC1 180255Z 06002KT 06/M04 A301 RMK A01 T00641037  RH  049%=      5-min Rain = 0
KMC1 180256Z 07002KT 06/M04 A301 RMK A01 T00631036  RH  049%=      5-min Rain = 0
KMC1 180257Z 07002KT 06/M04 A301 RMK A01 T00631036  RH  049%=      5-min Rain = 0
KMC1 180258Z 07003KT 06/M04 A301 RMK A01 T00641036  RH  049%=      5-min Rain = 0
KMC1 180259Z 07003KT 07/M04 A301 RMK A01 T00651036  RH  049%=      5-min Rain = 0
KMC1 180300Z 06002KT 07/M04 A301 RMK A01 T00651036  RH  049%=      5-min Rain = 0
KMC1 180301Z 07002KT 07/M04 A301 RMK A01 T00651036  RH  049%=      5-min Rain = 0
KMC1 180302Z 07002KT 06/M04 A3011 RMK A01 T00641035  RH  049%=      5-min Rain = 0
KMC1 180303Z 06003KT 06/M04 A3011 RMK A01 T00641035  RH  049%=      5-min Rain = 0
KMC1 180304Z 06003KT 06/M04 A3011 RMK A01 T00641035  RH  049%=      5-min Rain = 0
KMC1 180305Z 06002KT 06/M04 A3011 RMK A01 T00631036  RH  049%=      5-min Rain = 0
KMC1 180306Z 05003KT 06/M04 A3011 RMK A01 T00631036  RH  049%=      5-min Rain = 0
KMC1 180307Z 05002KT 06/M04 A3011 RMK A01 T00631036  RH  049%=      5-min Rain = 0
KMC1 180308Z 05003KT 06/M04 A3011 RMK A01 T00631036  RH  049%=      5-min Rain = 0
KMC1 180309Z 05003KT 06/M04 A3011 RMK A01 T00631036  RH  049%=      5-min Rain = 0
KMC1 180310Z 05003KT 06/M04 A3011 RMK A01 T00621036  RH  049%=      5-min Rain = 0
KMC1 180311Z 05003KT 06/M04 A3011 RMK A01 T00621036  RH  050%=      5-min Rain = 0
KMC1 180312Z 05003KT 06/M04 A3011 RMK A01 T00611036  RH  050%=      5-min Rain = 0
KMC1 180313Z 04003KT 06/M04 A3011 RMK A01 T00601036  RH  050%=      5-min Rain = 0
KMC1 180314Z 04003KT 06/M04 A3011 RMK A01 T00591036  RH  051%=      5-min Rain = 0
KMC1 180315Z 04003KT 06/M04 A3011 RMK A01 T00591036  RH  051%=      5-min Rain = 0
KMC1 180316Z 04003KT 06/M04 A3011 RMK A01 T00591035  RH  051%=      5-min Rain = 0
KMC1 180317Z 04003KT 06/M04 A3011 RMK A01 T00591035  RH  051%=      5-min Rain = 0
KMC1 180318Z 04003KT 06/M04 A3011 RMK A01 T00591035  RH  051%=      5-min Rain = 0
KMC1 180319Z 04002KT 06/M04 A3011 RMK A01 T00601035  RH  051%=      5-min Rain = 0
KMC1 180320Z 04002KT 06/M03 A3011 RMK A01 T00591034  RH  051%=      5-min Rain = 0
KMC1 180321Z 04001KT 06/M03 A3011 RMK A01 T00551033  RH  053%=      5-min Rain = 0
KMC1 180322Z 04001KT 05/M03 A3011 RMK A01 T00511034  RH  054%=      5-min Rain = 0
KMC1 180323Z 06001KT 05/M03 A3011 RMK A01 T00481034  RH  055%=      5-min Rain = 0
KMC1 180324Z 06002KT 05/M04 A3011 RMK A01 T00471036  RH  055%=      5-min Rain = 0
KMC1 180325Z 06002KT 05/M04 A3011 RMK A01 T00461037  RH  055%=      5-min Rain = 0
KMC1 180326Z 07002KT 05/M04 A3011 RMK A01 T00451037  RH  055%=      5-min Rain = 0
KMC1 180327Z 07002KT 05/M04 A3011 RMK A01 T00451037  RH  055%=      5-min Rain = 0
KMC1 180328Z 06002KT 05/M04 A3011 RMK A01 T00461037  RH  055%=      5-min Rain = 0
KMC1 180329Z 07002KT 05/M04 A3011 RMK A01 T00471037  RH  055%=      5-min Rain = 0
KMC1 180330Z 07002KT 05/M04 A3011 RMK A01 T00491036  RH  054%=      5-min Rain = 0
KMC1 180331Z 07002KT 05/M04 A3011 RMK A01 T00501036  RH  054%=      5-min Rain = 0
KMC1 180332Z 07002KT 05/M04 A3011 RMK A01 T00511036  RH  053%=      5-min Rain = 0
KMC1 180333Z 06001KT 05/M04 A3011 RMK A01 T00511037  RH  053%=      5-min Rain = 0
KMC1 180334Z 06001KT 05/M04 A3011 RMK A01 T00511037  RH  053%=      5-min Rain = 0
KMC1 180335Z 05001KT 05/M04 A3011 RMK A01 T00511037  RH  053%=      5-min Rain = 0
KMC1 180336Z 05000KT 05/M04 A3011 RMK A01 T00501037  RH  053%=      5-min Rain = 0
KMC1 180337Z 00000KT 05/M04 A3012 RMK A01 T00481039  RH  054%=      5-min Rain = 0
KMC1 180338Z 00000KT 05/M04 A3012 RMK A01 T00451039  RH  054%=      5-min Rain = 0
KMC1 180339Z 00000KT 04/M04 A3012 RMK A01 T00421035  RH  057%=      5-min Rain = 0
KMC1 180340Z 00000KT 04/M03 A3012 RMK A01 T00391031  RH  060%=      5-min Rain = 0
KMC1 180341Z 00000KT 04/M03 A3012 RMK A01 T00371031  RH  061%=      5-min Rain = 0
KMC1 180342Z 00000KT 04/M03 A3012 RMK A01 T00351032  RH  061%=      5-min Rain = 0
KMC1 180343Z 00000KT 03/M03 A3012 RMK A01 T00341033  RH  062%=      5-min Rain = 0
KMC1 180344Z 00000KT 03/M03 A3012 RMK A01 T00331033  RH  062%=      5-min Rain = 0
KMC1 180345Z 31000KT 03/M03 A3012 RMK A01 T00331032  RH  063%=      5-min Rain = 0
KMC1 180346Z 31001KT 03/M03 A3012 RMK A01 T00331032  RH  063%=      5-min Rain = 0
KMC1 180347Z 31001KT 03/M03 A3012 RMK A01 T00341032  RH  062%=      5-min Rain = 0
KMC1 180348Z 31001KT 04/M03 A3012 RMK A01 T00351032  RH  062%=      5-min Rain = 0
KMC1 180349Z 31001KT 04/M03 A3011 RMK A01 T00351033  RH  061%=      5-min Rain = 0
KMC1 180350Z 31001KT 04/M03 A3011 RMK A01 T00361033  RH  061%=      5-min Rain = 0
KMC1 180351Z 32001KT 04/M03 A3011 RMK A01 T00361033  RH  061%=      5-min Rain = 0
KMC1 180352Z 11001KT 04/M03 A3011 RMK A01 T00381033  RH  060%=      5-min Rain = 0
KMC1 180353Z 12002KT 04/M03 A3011 RMK A01 T00391033  RH  059%=      5-min Rain = 0
KMC1 180354Z 13002KT 04/M03 A3011 RMK A01 T00401033  RH  059%=      5-min Rain = 0
KMC1 180355Z 13002KT 04/M03 A3011 RMK A01 T00411033  RH  058%=      5-min Rain = 0
KMC1 180356Z 13002KT 04/M03 A3011 RMK A01 T00421033  RH  058%=      5-min Rain = 0
KMC1 180357Z 13002KT 04/M03 A3011 RMK A01 T00431034  RH  057%=      5-min Rain = 0
KMC1 180358Z 13003KT 04/M03 A3011 RMK A01 T00431034  RH  057%=      5-min Rain = 0
KMC1 180359Z 13003KT 04/M04 A3011 RMK A01 T00431035  RH  057%=      5-min Rain = 0
KMC1 180400Z 13003KT 04/M04 A3011 RMK A01 T00431036  RH  056%=      5-min Rain = 0
KMC1 180401Z 12003KT 04/M04 A3011 RMK A01 T00431036  RH  056%=      5-min Rain = 0
KMC1 180402Z 12002KT 04/M04 A3011 RMK A01 T00441036  RH  056%=      5-min Rain = 0
KMC1 180403Z 12002KT 04/M04 A3011 RMK A01 T00441036  RH  056%=      5-min Rain = 0
KMC1 180404Z 12002KT 05/M04 A3011 RMK A01 T00451036  RH  056%=      5-min Rain = 0
KMC1 180405Z 13001KT 04/M04 A3011 RMK A01 T00441037  RH  055%=      5-min Rain = 0
KMC1 180406Z 12001KT 04/M04 A3011 RMK A01 T00441037  RH  055%=      5-min Rain = 0
KMC1 180407Z 11001KT 04/M04 A3011 RMK A01 T00441037  RH  056%=      5-min Rain = 0
KMC1 180408Z 11001KT 04/M04 A3011 RMK A01 T00441035  RH  056%=      5-min Rain = 0
KMC1 180409Z 11000KT 04/M04 A3011 RMK A01 T00441035  RH  057%=      5-min Rain = 0
KMC1 180410Z 00000KT 04/M03 A3011 RMK A01 T00441034  RH  057%=      5-min Rain = 0
KMC1 180411Z 00000KT 04/M04 A3011 RMK A01 T00441035  RH  057%=      5-min Rain = 0
KMC1 180412Z 00000KT 04/M03 A3011 RMK A01 T00431034  RH  057%=      5-min Rain = 0
KMC1 180413Z 00000KT 04/M03 A3011 RMK A01 T00411032  RH  059%=      5-min Rain = 0
KMC1 180414Z 07000KT 04/M03 A3011 RMK A01 T00401032  RH  059%=      5-min Rain = 0
KMC1 180415Z 07001KT 04/M03 A3011 RMK A01 T00391033  RH  059%=      5-min Rain = 0
KMC1 180416Z 07000KT 04/M04 A3011 RMK A01 T00391035  RH  058%=      5-min Rain = 0
KMC1 180417Z 07001KT 04/M04 A3011 RMK A01 T00401035  RH  058%=      5-min Rain = 0
KMC1 180418Z 07001KT 04/M04 A3011 RMK A01 T00411036  RH  057%=      5-min Rain = 0
KMC1 180419Z 08001KT 04/M04 A3011 RMK A01 T00421037  RH  057%=      5-min Rain = 0
KMC1 180420Z 08001KT 04/M04 A3011 RMK A01 T00421037  RH  056%=      5-min Rain = 0
KMC1 180421Z 07002KT 04/M04 A3011 RMK A01 T00431037  RH  056%=      5-min Rain = 0
KMC1 180422Z 06002KT 04/M04 A3011 RMK A01 T00441036  RH  056%=      5-min Rain = 0
KMC1 180423Z 06002KT 05/M04 A3011 RMK A01 T00461036  RH  055%=      5-min Rain = 0
KMC1 180424Z 06002KT 05/M04 A3011 RMK A01 T00481035  RH  055%=      5-min Rain = 0
KMC1 180425Z 06002KT 05/M04 A3011 RMK A01 T00501035  RH  054%=      5-min Rain = 0
KMC1 180426Z 06001KT 05/M04 A3011 RMK A01 T00501036  RH  054%=      5-min Rain = 0
KMC1 180427Z 08001KT 05/M04 A3011 RMK A01 T00511036  RH  054%=      5-min Rain = 0
KMC1 180428Z 08000KT 05/M03 A3011 RMK A01 T00471032  RH  056%=      5-min Rain = 0
KMC1 180429Z 07001KT 04/M03 A3011 RMK A01 T00431034  RH  057%=      5-min Rain = 0
KMC1 180430Z 05001KT 04/M03 A3011 RMK A01 T00411034  RH  058%=      5-min Rain = 0
KMC1 180431Z 06001KT 04/M03 A3011 RMK A01 T00401033  RH  059%=      5-min Rain = 0
KMC1 180432Z 07001KT 04/M04 A3011 RMK A01 T00381035  RH  059%=      5-min Rain = 0
KMC1 180433Z 06002KT 04/M04 A3011 RMK A01 T00361036  RH  059%=      5-min Rain = 0
KMC1 180434Z 06002KT 04/M04 A3011 RMK A01 T00351038  RH  059%=      5-min Rain = 0
KMC1 180435Z 06001KT 03/M04 A3011 RMK A01 T00341038  RH  060%=      5-min Rain = 0
KMC1 180436Z 06001KT 03/M04 A3011 RMK A01 T00341037  RH  060%=      5-min Rain = 0
KMC1 180437Z 06002KT 03/M04 A3011 RMK A01 T00341036  RH  060%=      5-min Rain = 0
KMC1 180438Z 06002KT 03/M03 A3011 RMK A01 T00341034  RH  061%=      5-min Rain = 0
KMC1 180439Z 06002KT 04/M03 A301 RMK A01 T00351032  RH  061%=      5-min Rain = 0
KMC1 180440Z 04001KT 04/M03 A301 RMK A01 T00361033  RH  061%=      5-min Rain = 0
KMC1 180441Z 30001KT 03/M04 A301 RMK A01 T00301036  RH  062%=      5-min Rain = 0
KMC1 180442Z 33000KT 02/M04 A301 RMK A01 T00241037  RH  064%=      5-min Rain = 0
KMC1 180443Z 35001KT 02/M04 A301 RMK A01 T00211037  RH  066%=      5-min Rain = 0
KMC1 180444Z 04001KT 02/M04 A301 RMK A01 T00181037  RH  067%=      5-min Rain = 0
KMC1 180445Z 04001KT 02/M04 A301 RMK A01 T00171036  RH  068%=      5-min Rain = 0
KMC1 180446Z 07001KT 02/M04 A301 RMK A01 T00161035  RH  069%=      5-min Rain = 0
KMC1 180447Z 08002KT 02/M03 A301 RMK A01 T00161034  RH  070%=      5-min Rain = 0
KMC1 180448Z 08003KT 02/M03 A301 RMK A01 T00161034  RH  070%=      5-min Rain = 0
KMC1 180449Z 08003KT 02/M03 A301 RMK A01 T00161033  RH  070%=      5-min Rain = 0
KMC1 180450Z 08003KT 02/M03 A301 RMK A01 T00171033  RH  069%=      5-min Rain = 0
KMC1 180451Z 08003KT 02/M03 A301 RMK A01 T00171033  RH  069%=      5-min Rain = 0
KMC1 180452Z 09003KT 02/M03 A301 RMK A01 T00171033  RH  069%=      5-min Rain = 0
KMC1 180453Z 10003KT 02/M03 A301 RMK A01 T00161034  RH  069%=      5-min Rain = 0
KMC1 180454Z 11002KT 02/M04 A301 RMK A01 T00161035  RH  069%=      5-min Rain = 0
KMC1 180455Z 11002KT 02/M04 A301 RMK A01 T00171035  RH  068%=      5-min Rain = 0
KMC1 180456Z 12002KT 02/M04 A301 RMK A01 T00171036  RH  068%=      5-min Rain = 0
KMC1 180457Z 11002KT 02/M04 A301 RMK A01 T00171036  RH  068%=      5-min Rain = 0
KMC1 180458Z 11002KT 02/M04 A301 RMK A01 T00171037  RH  068%=      5-min Rain = 0
KMC1 180459Z 10001KT 02/M04 A301 RMK A01 T00171037  RH  067%=      5-min Rain = 0
KMC1 180500Z 11000KT 02/M04 A301 RMK A01 T00161037  RH  068%=      5-min Rain = 0
KMC1 180501Z 11000KT 02/M04 A301 RMK A01 T00161037  RH  068%=      5-min Rain = 0
KMC1 180502Z 00000KT 02/M04 A301 RMK A01 T00161037  RH  068%=      5-min Rain = 0
KMC1 180503Z 13000KT 01/M04 A301 RMK A01 T00131038  RH  069%=      5-min Rain = 0
KMC1 180504Z 13000KT 01/M04 A301 RMK A01 T00101039  RH  070%=      5-min Rain = 0
KMC1 180505Z 14000KT 01/M04 A301 RMK A01 T00081040  RH  070%=      5-min Rain = 0
KMC1 180506Z 20001KT 01/M04 A301 RMK A01 T00061041  RH  071%=      5-min Rain = 0
KMC1 180507Z 21001KT 01/M04 A301 RMK A01 T00051041  RH  071%=      5-min Rain = 0
KMC1 180508Z 21001KT 00/M04 A301 RMK A01 T00041041  RH  072%=      5-min Rain = 0
KMC1 180509Z 21001KT 00/M04 A301 RMK A01 T00031040  RH  073%=      5-min Rain = 0
KMC1 180510Z 20001KT 00/M04 A301 RMK A01 T00031040  RH  073%=      5-min Rain = 0
KMC1 180511Z 20001KT 00/M04 A301 RMK A01 T00031039  RH  074%=      5-min Rain = 0
KMC1 180512Z 20001KT 00/M04 A301 RMK A01 T00041037  RH  074%=      5-min Rain = 0
KMC1 180513Z 20001KT 01/M04 A301 RMK A01 T00061036  RH  073%=      5-min Rain = 0
KMC1 180514Z 20001KT 01/M04 A301 RMK A01 T00091036  RH  072%=      5-min Rain = 0
KMC1 180515Z 20001KT 01/M04 A301 RMK A01 T00111036  RH  071%=      5-min Rain = 0
KMC1 180516Z 20000KT 01/M04 A301 RMK A01 T00121036  RH  070%=      5-min Rain = 0
KMC1 180517Z 20000KT 01/M04 A3009 RMK A01 T00121037  RH  070%=      5-min Rain = 0
KMC1 180518Z 20000KT 01/M04 A3009 RMK A01 T00131037  RH  069%=      5-min Rain = 0
KMC1 180519Z 20001KT 01/M04 A3009 RMK A01 T00131038  RH  069%=      5-min Rain = 0
KMC1 180520Z 20001KT 01/M04 A3009 RMK A01 T00121038  RH  069%=      5-min Rain = 0
KMC1 180521Z 20001KT 01/M04 A3009 RMK A01 T00121038  RH  069%=      5-min Rain = 0
KMC1 180522Z 20001KT 01/M04 A3009 RMK A01 T00121038  RH  069%=      5-min Rain = 0
KMC1 180523Z 15001KT 01/M04 A3009 RMK A01 T00111038  RH  070%=      5-min Rain = 0
KMC1 180524Z 14001KT 01/M04 A3009 RMK A01 T00101038  RH  070%=      5-min Rain = 0
KMC1 180525Z 13002KT 01/M04 A3009 RMK A01 T00101038  RH  070%=      5-min Rain = 0
KMC1 180526Z 14001KT 01/M04 A3009 RMK A01 T00101038  RH  070%=      5-min Rain = 0
KMC1 180527Z 14001KT 01/M04 A3009 RMK A01 T00101038  RH  070%=      5-min Rain = 0
KMC1 180528Z 14000KT 01/M04 A3009 RMK A01 T00091039  RH  071%=      5-min Rain = 0
KMC1 180529Z 14000KT 01/M04 A3009 RMK A01 T00081038  RH  071%=      5-min Rain = 0
KMC1 180530Z 00000KT 01/M04 A3009 RMK A01 T00081038  RH  072%=      5-min Rain = 0
KMC1 180531Z 14000KT 01/M04 A3009 RMK A01 T00071038  RH  072%=      5-min Rain = 0
KMC1 180532Z 00000KT 01/M04 A3009 RMK A01 T00061038  RH  073%=      5-min Rain = 0
KMC1 180533Z 00000KT 00/M04 A3009 RMK A01 T00041039  RH  073%=      5-min Rain = 0
KMC1 180534Z 20000KT 00/M04 A3009 RMK A01 T00031039  RH  074%=      5-min Rain = 0
KMC1 180535Z 20002KT 00/M04 A3009 RMK A01 T00011039  RH  074%=      5-min Rain = 0
KMC1 180536Z 21002KT 00/04 A3009 RMK A01 T00-00-39  RH  075%=      5-min Rain = 0
KMC1 180537Z 21001KT M00/M04 A3009 RMK A01 T10011039  RH  076%=      5-min Rain = 0
KMC1 180538Z 21000KT M00/M04 A3009 RMK A01 T10031040  RH  076%=      5-min Rain = 0
KMC1 180539Z 12001KT M00/M04 A3009 RMK A01 T10041040  RH  076%=      5-min Rain = 0
KMC1 180540Z 11001KT M00/M04 A3009 RMK A01 T10041040  RH  076%=      5-min Rain = 0
KMC1 180541Z 10001KT M00/M04 A3009 RMK A01 T10031039  RH  077%=      5-min Rain = 0
KMC1 180542Z 10002KT M00/M04 A3009 RMK A01 T10011037  RH  076%=      5-min Rain = 0
KMC1 180543Z 09002KT 00/M04 A3009 RMK A01 T00021036  RH  075%=      5-min Rain = 0
KMC1 180544Z 08002KT 01/M04 A3009 RMK A01 T00051036  RH  074%=      5-min Rain = 0
KMC1 180545Z 09002KT 01/M04 A3009 RMK A01 T00081036  RH  072%=      5-min Rain = 0
KMC1 180546Z 08001KT 01/M04 A3009 RMK A01 T00091037  RH  071%=      5-min Rain = 0
KMC1 180547Z 00000KT 01/M04 A3009 RMK A01 T00071041  RH  070%=      5-min Rain = 0
KMC1 180548Z 00000KT 00/M04 A3008 RMK A01 T00021044  RH  071%=      5-min Rain = 0
KMC1 180549Z 00000KT M00/M04 A3008 RMK A01 T10011044  RH  073%=      5-min Rain = 0
KMC1 180550Z 11000KT M00/M04 A3008 RMK A01 T10021043  RH  074%=      5-min Rain = 0
KMC1 180551Z 11001KT M00/M04 A3008 RMK A01 T10031042  RH  075%=      5-min Rain = 0
KMC1 180552Z 11001KT M00/M04 A3008 RMK A01 T10031041  RH  075%=      5-min Rain = 0
KMC1 180553Z 09001KT M00/M04 A3008 RMK A01 T10031041  RH  075%=      5-min Rain = 0
KMC1 180554Z 09001KT M00/M04 A3008 RMK A01 T10021040  RH  076%=      5-min Rain = 0
KMC1 180555Z 09001KT M00/M04 A3008 RMK A01 T10021040  RH  076%=      5-min Rain = 0
KMC1 180556Z 09000KT M00/M04 A3008 RMK A01 T10011039  RH  075%=      5-min Rain = 0
KMC1 180557Z 00000KT 00/M04 A3008 RMK A01 T00011039  RH  074%=      5-min Rain = 0
KMC1 180558Z 09000KT 00/M04 A3008 RMK A01 T00021040  RH  074%=      5-min Rain = 0
KMC1 180559Z 00000KT 00/04 A3008 RMK A01 T00000-41  RH  074%=      5-min Rain = 0

Page generated in 0.1223 seconds.